ANZ6 NZAA-KLAX
Flight info
| Callsign | ANZ6 |
|---|---|
| Flight time | 11h 46m |
| Altitude | 33000 |
| Route | OLBEX G599 MUKLU DCT 30S169W DCT PABGO L508 ISPAK/N0487F350 L508 RG B454 BIBUP DCT 15S156W 10S154W DCT TOPOM DCT 02S150W DCT BISOX DCT 05N147W/N0480F370 10N144W 15N141W DCT BELAN DCT 23N135W/N0471F390 DCT AFONE DCT 27N130W 30N125W DCT FICKY GOATZ2 |
| Aircraft | B77W/H-SDE1E2E3FGHIJ2J3J4J5M1RWXY/LB1D1 |
Departure
| Time | 2026-04-22 13:15 |
|---|---|
| Airport | Auckland International Airport (NZAA) |
Arrival
| Time | 2026-04-23 01:01 |
|---|---|
| Airport | Los Angeles International Airport (KLAX) |
| Time | Latitude | Longitude | Altitude | Speed | Heading |
|---|---|---|---|---|---|
| 2026-04-22 12:35 | -37.00833 | 174.78282 | 20 ft | 0 kts | 324° |
| 2026-04-22 13:02 | -37.00838 | 174.78286 | 20 ft | 2 kts | 324° |
| 2026-04-22 13:02 | -37.00851 | 174.78298 | 20 ft | 2 kts | 324° |
| 2026-04-22 13:02 | -37.00859 | 174.78306 | 20 ft | 2 kts | 325° |
| 2026-04-22 13:02 | -37.00873 | 174.78317 | 20 ft | 2 kts | 327° |
| 2026-04-22 13:03 | -37.00886 | 174.78327 | 20 ft | 2 kts | 329° |
| 2026-04-22 13:03 | -37.00900 | 174.78338 | 20 ft | 2 kts | 330° |
| 2026-04-22 13:03 | -37.00914 | 174.78348 | 20 ft | 2 kts | 330° |
| 2026-04-22 13:03 | -37.00925 | 174.78356 | 20 ft | 2 kts | 312° |
| 2026-04-22 13:04 | -37.00928 | 174.78358 | 20 ft | 2 kts | 258° |
| 2026-04-22 13:04 | -37.00927 | 174.78364 | 20 ft | 2 kts | 207° |
| 2026-04-22 13:04 | -37.00915 | 174.78368 | 20 ft | 2 kts | 180° |
| 2026-04-22 13:04 | -37.00900 | 174.78366 | 20 ft | 2 kts | 175° |
| 2026-04-22 13:05 | -37.00885 | 174.78366 | 20 ft | 2 kts | 188° |
| 2026-04-22 13:05 | -37.00881 | 174.78367 | 20 ft | 0 kts | 188° |
| 2026-04-22 13:07 | -37.00884 | 174.78366 | 20 ft | 3 kts | 188° |
| 2026-04-22 13:07 | -37.00930 | 174.78360 | 20 ft | 10 kts | 181° |
| 2026-04-22 13:08 | -37.01015 | 174.78388 | 20 ft | 15 kts | 148° |
| 2026-04-22 13:08 | -37.01042 | 174.78518 | 20 ft | 19 kts | 72° |
| 2026-04-22 13:08 | -37.00991 | 174.78702 | 20 ft | 25 kts | 71° |
| 2026-04-22 13:08 | -37.00929 | 174.78930 | 20 ft | 28 kts | 71° |
| 2026-04-22 13:09 | -37.00868 | 174.79149 | 20 ft | 25 kts | 71° |
| 2026-04-22 13:09 | -37.00812 | 174.79346 | 20 ft | 23 kts | 71° |
| 2026-04-22 13:09 | -37.00762 | 174.79533 | 20 ft | 22 kts | 70° |
| 2026-04-22 13:09 | -37.00704 | 174.79739 | 20 ft | 28 kts | 71° |
| 2026-04-22 13:10 | -37.00643 | 174.79961 | 20 ft | 26 kts | 71° |
| 2026-04-22 13:10 | -37.00587 | 174.80164 | 20 ft | 23 kts | 71° |
| 2026-04-22 13:10 | -37.00535 | 174.80351 | 20 ft | 22 kts | 71° |
| 2026-04-22 13:10 | -37.00496 | 174.80494 | 20 ft | 10 kts | 71° |
| 2026-04-22 13:11 | -37.00490 | 174.80520 | 20 ft | 8 kts | 77° |
| 2026-04-22 13:11 | -37.00531 | 174.80612 | 20 ft | 13 kts | 162° |
| 2026-04-22 13:11 | -37.00587 | 174.80591 | 20 ft | 3 kts | 215° |
| 2026-04-22 13:11 | -37.00603 | 174.80577 | 20 ft | 0 kts | 215° |
| 2026-04-22 13:12 | -37.00605 | 174.80575 | 20 ft | 1 kts | 214° |
| 2026-04-22 13:12 | -37.00618 | 174.80567 | 20 ft | 6 kts | 207° |
| 2026-04-22 13:12 | -37.00675 | 174.80520 | 20 ft | 10 kts | 231° |
| 2026-04-22 13:12 | -37.00695 | 174.80468 | 20 ft | 0 kts | 251° |
| 2026-04-22 13:14 | -37.00703 | 174.80438 | 20 ft | 12 kts | 251° |
| 2026-04-22 13:14 | -37.00803 | 174.80078 | 20 ft | 80 kts | 251° |
| 2026-04-22 13:14 | -37.01069 | 174.79117 | 20 ft | 149 kts | 250° |
| 2026-04-22 13:14 | -37.01467 | 174.77668 | 54 ft | 197 kts | 249° |
| 2026-04-22 13:15 | -37.01922 | 174.75988 | 513 ft | 207 kts | 249° |
| 2026-04-22 13:15 | -37.02393 | 174.74275 | 1242 ft | 210 kts | 248° |
| 2026-04-22 13:15 | -37.02882 | 174.72538 | 1920 ft | 215 kts | 246° |
| 2026-04-22 13:15 | -37.03622 | 174.70899 | 2100 ft | 224 kts | 223° |
| 2026-04-22 13:16 | -37.04969 | 174.69950 | 2333 ft | 226 kts | 191° |
| 2026-04-22 13:16 | -37.06523 | 174.70069 | 2702 ft | 227 kts | 160° |
| 2026-04-22 13:16 | -37.07783 | 174.71225 | 3172 ft | 229 kts | 130° |
| 2026-04-22 13:16 | -37.08511 | 174.73060 | 3584 ft | 237 kts | 113° |
| 2026-04-22 13:17 | -37.09039 | 174.75054 | 3998 ft | 245 kts | 111° |
| 2026-04-22 13:17 | -37.09572 | 174.77101 | 4564 ft | 247 kts | 111° |
| 2026-04-22 13:17 | -37.10116 | 174.79152 | 5103 ft | 251 kts | 111° |
| 2026-04-22 13:17 | -37.10644 | 174.81244 | 5516 ft | 258 kts | 105° |
| 2026-04-22 13:18 | -37.10740 | 174.83507 | 6023 ft | 263 kts | 89° |
| 2026-04-22 13:18 | -37.10587 | 174.85808 | 6525 ft | 267 kts | 89° |
| 2026-04-22 13:18 | -37.10462 | 174.88162 | 7002 ft | 273 kts | 89° |
| 2026-04-22 13:18 | -37.10347 | 174.90550 | 7492 ft | 277 kts | 89° |
| 2026-04-22 13:19 | -37.10240 | 174.92973 | 8003 ft | 280 kts | 89° |
| 2026-04-22 13:19 | -37.10137 | 174.95422 | 8466 ft | 284 kts | 89° |
| 2026-04-22 13:19 | -37.10004 | 174.97910 | 8927 ft | 288 kts | 84° |
| 2026-04-22 13:19 | -37.09561 | 175.00379 | 9372 ft | 293 kts | 73° |
| 2026-04-22 13:20 | -37.08816 | 175.02738 | 9819 ft | 297 kts | 69° |
| 2026-04-22 13:20 | -37.07987 | 175.05122 | 10259 ft | 300 kts | 67° |
| 2026-04-22 13:20 | -37.07103 | 175.07556 | 10731 ft | 304 kts | 66° |
| 2026-04-22 13:20 | -37.06205 | 175.09988 | 11080 ft | 315 kts | 66° |
| 2026-04-22 13:21 | -37.05268 | 175.12521 | 11265 ft | 331 kts | 66° |
| 2026-04-22 13:21 | -37.04275 | 175.15204 | 11434 ft | 348 kts | 66° |
| 2026-04-22 13:21 | -37.03226 | 175.18035 | 11603 ft | 366 kts | 66° |
| 2026-04-22 13:21 | -37.02138 | 175.20972 | 11953 ft | 378 kts | 66° |
| 2026-04-22 13:22 | -37.01016 | 175.23999 | 12399 ft | 387 kts | 66° |
| 2026-04-22 13:22 | -36.99871 | 175.27084 | 12918 ft | 393 kts | 65° |
| 2026-04-22 13:22 | -36.98706 | 175.30222 | 13352 ft | 398 kts | 65° |
| 2026-04-22 13:22 | -36.97539 | 175.33360 | 13867 ft | 401 kts | 65° |
| 2026-04-22 13:23 | -36.96355 | 175.36543 | 14287 ft | 404 kts | 65° |
| 2026-04-22 13:23 | -36.95179 | 175.39699 | 14703 ft | 408 kts | 65° |
| 2026-04-22 13:23 | -36.93976 | 175.42927 | 15135 ft | 411 kts | 65° |
| 2026-04-22 13:23 | -36.92764 | 175.46173 | 15572 ft | 414 kts | 64° |
| 2026-04-22 13:24 | -36.91547 | 175.49433 | 16004 ft | 416 kts | 64° |
| 2026-04-22 13:24 | -36.90316 | 175.52725 | 16403 ft | 419 kts | 64° |
| 2026-04-22 13:24 | -36.89073 | 175.56043 | 16798 ft | 422 kts | 64° |
| 2026-04-22 13:24 | -36.87824 | 175.59375 | 17182 ft | 425 kts | 64° |
| 2026-04-22 13:25 | -36.86565 | 175.62732 | 17579 ft | 428 kts | 64° |
| 2026-04-22 13:25 | -36.85295 | 175.66112 | 17954 ft | 430 kts | 64° |
| 2026-04-22 13:25 | -36.84019 | 175.69507 | 18331 ft | 433 kts | 63° |
| 2026-04-22 13:25 | -36.82736 | 175.72914 | 18713 ft | 435 kts | 63° |
| 2026-04-22 13:26 | -36.81444 | 175.76342 | 19046 ft | 438 kts | 63° |
| 2026-04-22 13:26 | -36.80143 | 175.79792 | 19412 ft | 440 kts | 63° |
| 2026-04-22 13:26 | -36.78850 | 175.83216 | 19767 ft | 442 kts | 63° |
| 2026-04-22 13:26 | -36.77531 | 175.86705 | 20069 ft | 446 kts | 63° |
| 2026-04-22 13:27 | -36.76202 | 175.90216 | 20420 ft | 447 kts | 63° |
| 2026-04-22 13:27 | -36.74869 | 175.93733 | 20757 ft | 449 kts | 63° |
| 2026-04-22 13:27 | -36.73534 | 175.97260 | 21099 ft | 451 kts | 63° |
| 2026-04-22 13:27 | -36.72183 | 176.00813 | 21404 ft | 453 kts | 63° |
| 2026-04-22 13:28 | -36.70846 | 176.04330 | 21705 ft | 455 kts | 63° |
| 2026-04-22 13:28 | -36.69486 | 176.07902 | 22005 ft | 457 kts | 63° |
| 2026-04-22 13:28 | -36.68116 | 176.11497 | 22301 ft | 459 kts | 63° |
| 2026-04-22 13:28 | -36.66744 | 176.15093 | 22590 ft | 461 kts | 63° |
| 2026-04-22 13:29 | -36.65367 | 176.18698 | 22872 ft | 463 kts | 63° |
| 2026-04-22 13:29 | -36.63986 | 176.22309 | 23140 ft | 465 kts | 63° |
| 2026-04-22 13:29 | -36.62567 | 176.26015 | 23399 ft | 467 kts | 63° |
| 2026-04-22 13:29 | -36.61166 | 176.29671 | 23679 ft | 468 kts | 63° |
| 2026-04-22 13:30 | -36.59764 | 176.33331 | 23940 ft | 470 kts | 63° |
| 2026-04-22 13:30 | -36.58349 | 176.37010 | 24196 ft | 472 kts | 63° |
| 2026-04-22 13:30 | -36.56930 | 176.40699 | 24436 ft | 474 kts | 63° |
| 2026-04-22 13:30 | -36.55504 | 176.44402 | 24668 ft | 476 kts | 63° |
| 2026-04-22 13:31 | -36.54068 | 176.48127 | 24927 ft | 477 kts | 63° |
| 2026-04-22 13:31 | -36.52629 | 176.51856 | 25151 ft | 479 kts | 63° |
| 2026-04-22 13:31 | -36.51200 | 176.55553 | 25399 ft | 480 kts | 62° |
| 2026-04-22 13:31 | -36.49749 | 176.59305 | 25641 ft | 481 kts | 62° |
| 2026-04-22 13:32 | -36.48292 | 176.63067 | 25833 ft | 484 kts | 62° |
| 2026-04-22 13:32 | -36.46827 | 176.66842 | 26049 ft | 485 kts | 62° |
| 2026-04-22 13:32 | -36.45359 | 176.70628 | 26246 ft | 487 kts | 62° |
| 2026-04-22 13:32 | -36.43880 | 176.74432 | 26460 ft | 488 kts | 62° |
| 2026-04-22 13:33 | -36.42397 | 176.78244 | 26630 ft | 491 kts | 62° |
| 2026-04-22 13:33 | -36.40908 | 176.82063 | 26829 ft | 492 kts | 62° |
| 2026-04-22 13:33 | -36.39409 | 176.85904 | 27015 ft | 494 kts | 62° |
| 2026-04-22 13:33 | -36.37931 | 176.89690 | 27199 ft | 495 kts | 62° |
| 2026-04-22 13:34 | -36.36419 | 176.93556 | 27379 ft | 497 kts | 61° |
| 2026-04-22 13:34 | -36.34903 | 176.97427 | 27526 ft | 499 kts | 61° |
| 2026-04-22 13:34 | -36.33381 | 177.01311 | 27694 ft | 501 kts | 61° |
| 2026-04-22 13:34 | -36.31856 | 177.05196 | 27857 ft | 502 kts | 61° |
| 2026-04-22 13:35 | -36.30319 | 177.09106 | 28018 ft | 504 kts | 61° |
| 2026-04-22 13:35 | -36.28777 | 177.13026 | 28167 ft | 506 kts | 60° |
| 2026-04-22 13:35 | -36.27250 | 177.16904 | 28277 ft | 508 kts | 60° |
| 2026-04-22 13:35 | -36.25692 | 177.20853 | 28416 ft | 510 kts | 60° |
| 2026-04-22 13:36 | -36.24131 | 177.24808 | 28582 ft | 511 kts | 60° |
| 2026-04-22 13:36 | -36.22562 | 177.28775 | 28684 ft | 513 kts | 60° |
| 2026-04-22 13:36 | -36.20985 | 177.32758 | 28760 ft | 516 kts | 60° |
| 2026-04-22 13:36 | -36.19404 | 177.36749 | 28903 ft | 517 kts | 59° |
| 2026-04-22 13:37 | -36.17819 | 177.40743 | 29033 ft | 518 kts | 59° |
| 2026-04-22 13:37 | -36.14626 | 177.48773 | 29237 ft | 522 kts | 59° |
| 2026-04-22 13:37 | -36.13017 | 177.52815 | 29340 ft | 523 kts | 59° |
| 2026-04-22 13:38 | -36.11408 | 177.56849 | 29417 ft | 526 kts | 59° |
| 2026-04-22 13:38 | -36.08154 | 177.64990 | 29744 ft | 525 kts | 58° |
| 2026-04-22 13:38 | -36.07089 | 177.67658 | 29915 ft | 524 kts | 58° |
| 2026-04-22 13:39 | -36.04920 | 177.73063 | 30199 ft | 523 kts | 57° |
| 2026-04-22 13:39 | -36.03851 | 177.75722 | 30310 ft | 523 kts | 57° |
| 2026-04-22 13:39 | -36.01713 | 177.81055 | 30566 ft | 522 kts | 57° |
| 2026-04-22 13:39 | -36.00092 | 177.85071 | 30790 ft | 521 kts | 57° |
| 2026-04-22 13:40 | -35.98480 | 177.89073 | 30963 ft | 521 kts | 57° |
| 2026-04-22 13:40 | -35.97413 | 177.91735 | 31110 ft | 520 kts | 57° |
| 2026-04-22 13:40 | -35.94164 | 177.99783 | 31184 ft | 527 kts | 57° |
| 2026-04-22 13:41 | -35.90312 | 178.09278 | 31192 ft | 530 kts | 57° |
| 2026-04-22 13:41 | -35.87562 | 178.16044 | 31187 ft | 530 kts | 57° |
| 2026-04-22 13:42 | -35.84256 | 178.24183 | 31167 ft | 530 kts | 56° |
| 2026-04-22 13:42 | -35.80972 | 178.32298 | 31184 ft | 529 kts | 56° |
| 2026-04-22 13:43 | -35.77653 | 178.40421 | 31200 ft | 532 kts | 56° |
| 2026-04-22 13:43 | -35.74328 | 178.48510 | 31198 ft | 531 kts | 56° |
| 2026-04-22 13:44 | -35.70980 | 178.56615 | 31202 ft | 530 kts | 55° |
| 2026-04-22 13:44 | -35.67682 | 178.64754 | 31188 ft | 534 kts | 57° |
| 2026-04-22 13:45 | -35.64608 | 178.73116 | 31183 ft | 536 kts | 58° |
| 2026-04-22 13:45 | -35.61548 | 178.81480 | 31190 ft | 536 kts | 57° |
| 2026-04-22 13:46 | -35.58448 | 178.89797 | 31179 ft | 537 kts | 57° |
| 2026-04-22 13:46 | -35.55333 | 178.98119 | 31196 ft | 536 kts | 56° |
| 2026-04-22 13:47 | -35.52245 | 179.06484 | 31172 ft | 539 kts | 57° |
| 2026-04-22 13:47 | -35.49139 | 179.14865 | 31163 ft | 539 kts | 57° |
| 2026-04-22 13:48 | -35.46011 | 179.23217 | 31201 ft | 538 kts | 56° |
| 2026-04-22 13:48 | -35.42904 | 179.31511 | 31192 ft | 537 kts | 56° |
| 2026-04-22 13:49 | -35.39766 | 179.39823 | 31181 ft | 538 kts | 56° |
| 2026-04-22 13:49 | -35.36612 | 179.48129 | 31210 ft | 535 kts | 55° |
| 2026-04-22 13:50 | -35.33456 | 179.56380 | 31179 ft | 535 kts | 56° |
| 2026-04-22 13:50 | -35.30315 | 179.64671 | 31163 ft | 538 kts | 55° |
| 2026-04-22 13:51 | -35.27141 | 179.72966 | 31180 ft | 536 kts | 55° |
| 2026-04-22 13:51 | -35.24008 | 179.81262 | 31179 ft | 540 kts | 56° |
| 2026-04-22 13:52 | -35.20848 | 179.89494 | 31214 ft | 533 kts | 54° |
| 2026-04-22 13:52 | -35.17674 | 179.97742 | 31181 ft | 538 kts | 55° |
| 2026-04-22 13:53 | -35.14481 | -179.93940 | 31147 ft | 543 kts | 54° |
| 2026-04-22 13:53 | -35.11268 | -179.85591 | 31015 ft | 542 kts | 53° |
| 2026-04-22 13:54 | -35.08047 | -179.77255 | 31013 ft | 544 kts | 53° |
| 2026-04-22 13:54 | -35.04819 | -179.68988 | 31048 ft | 538 kts | 53° |
| 2026-04-22 13:55 | -35.01581 | -179.60712 | 31033 ft | 542 kts | 53° |
| 2026-04-22 13:55 | -34.98323 | -179.52380 | 31029 ft | 543 kts | 53° |
| 2026-04-22 13:56 | -34.95098 | -179.44112 | 31009 ft | 541 kts | 52° |
| 2026-04-22 13:56 | -34.91855 | -179.35848 | 31018 ft | 542 kts | 52° |
| 2026-04-22 13:57 | -34.88603 | -179.27552 | 31034 ft | 543 kts | 52° |
| 2026-04-22 13:57 | -34.85332 | -179.19253 | 31021 ft | 544 kts | 52° |
| 2026-04-22 13:58 | -34.82066 | -179.10996 | 31000 ft | 543 kts | 51° |
| 2026-04-22 13:58 | -34.78779 | -179.02716 | 31035 ft | 542 kts | 51° |
| 2026-04-22 13:59 | -34.75497 | -178.94440 | 31018 ft | 543 kts | 51° |
| 2026-04-22 13:59 | -34.72201 | -178.86157 | 31024 ft | 544 kts | 51° |
| 2026-04-22 14:00 | -34.68890 | -178.77866 | 31048 ft | 546 kts | 51° |
| 2026-04-22 14:00 | -34.65566 | -178.69560 | 31019 ft | 547 kts | 51° |
| 2026-04-22 14:01 | -34.62233 | -178.61269 | 31014 ft | 543 kts | 50° |
| 2026-04-22 14:01 | -34.58915 | -178.53008 | 31037 ft | 546 kts | 50° |
| 2026-04-22 14:02 | -34.55599 | -178.44788 | 31025 ft | 546 kts | 50° |
| 2026-04-22 14:02 | -34.52247 | -178.36598 | 31017 ft | 540 kts | 49° |
| 2026-04-22 14:03 | -34.48916 | -178.28325 | 31009 ft | 548 kts | 49° |
| 2026-04-22 14:03 | -34.45589 | -178.20034 | 31057 ft | 544 kts | 48° |
| 2026-04-22 14:04 | -34.42253 | -178.11827 | 31005 ft | 544 kts | 48° |
| 2026-04-22 14:04 | -34.38888 | -178.03640 | 31031 ft | 543 kts | 47° |
| 2026-04-22 14:05 | -34.35550 | -177.95432 | 31038 ft | 548 kts | 48° |
| 2026-04-22 14:06 | -34.30474 | -177.83080 | 31039 ft | 541 kts | 47° |
| 2026-04-22 14:06 | -34.27118 | -177.74962 | 31014 ft | 542 kts | 47° |
| 2026-04-22 14:07 | -34.23728 | -177.66835 | 31046 ft | 542 kts | 47° |
| 2026-04-22 14:07 | -34.20357 | -177.58614 | 31036 ft | 546 kts | 48° |
| 2026-04-22 14:08 | -34.16961 | -177.50422 | 31017 ft | 544 kts | 47° |
| 2026-04-22 14:08 | -34.13573 | -177.42245 | 31027 ft | 547 kts | 47° |
| 2026-04-22 14:09 | -34.10166 | -177.34060 | 31033 ft | 545 kts | 47° |
| 2026-04-22 14:09 | -34.06733 | -177.25936 | 31019 ft | 547 kts | 48° |
| 2026-04-22 14:10 | -34.03346 | -177.17747 | 31060 ft | 543 kts | 48° |
| 2026-04-22 14:10 | -33.99959 | -177.09634 | 31014 ft | 543 kts | 47° |
| 2026-04-22 14:11 | -33.96546 | -177.01541 | 31018 ft | 540 kts | 48° |
| 2026-04-22 14:11 | -33.93168 | -176.93524 | 31047 ft | 539 kts | 47° |
| 2026-04-22 14:12 | -33.89788 | -176.85501 | 31022 ft | 539 kts | 48° |
| 2026-04-22 14:12 | -33.86360 | -176.77414 | 31014 ft | 539 kts | 48° |
| 2026-04-22 14:13 | -33.82973 | -176.69452 | 31028 ft | 537 kts | 48° |
| 2026-04-22 14:13 | -33.79576 | -176.61452 | 31031 ft | 536 kts | 48° |
| 2026-04-22 14:14 | -33.76158 | -176.53441 | 31027 ft | 538 kts | 48° |
| 2026-04-22 14:14 | -33.72733 | -176.45420 | 31052 ft | 538 kts | 48° |
| 2026-04-22 14:15 | -33.69326 | -176.37473 | 31020 ft | 538 kts | 48° |
| 2026-04-22 14:15 | -33.65885 | -176.29498 | 31024 ft | 536 kts | 48° |
| 2026-04-22 14:16 | -33.62449 | -176.21511 | 31038 ft | 539 kts | 48° |
| 2026-04-22 14:16 | -33.58992 | -176.13470 | 31021 ft | 542 kts | 48° |
| 2026-04-22 14:17 | -33.55544 | -176.05508 | 31013 ft | 539 kts | 48° |
| 2026-04-22 14:17 | -33.52082 | -175.97526 | 31016 ft | 539 kts | 48° |
| 2026-04-22 14:18 | -33.48636 | -175.89560 | 31041 ft | 537 kts | 48° |
| 2026-04-22 14:18 | -33.45171 | -175.81618 | 31026 ft | 536 kts | 48° |
| 2026-04-22 14:19 | -33.41718 | -175.73701 | 31029 ft | 536 kts | 48° |
| 2026-04-22 14:19 | -33.38290 | -175.65843 | 31032 ft | 536 kts | 48° |
| 2026-04-22 14:20 | -33.33096 | -175.54000 | 31030 ft | 535 kts | 49° |
| 2026-04-22 14:20 | -33.29635 | -175.46127 | 31023 ft | 535 kts | 48° |
| 2026-04-22 14:21 | -33.24406 | -175.34258 | 31037 ft | 538 kts | 49° |
| 2026-04-22 14:22 | -33.19211 | -175.22446 | 31054 ft | 534 kts | 49° |
| 2026-04-22 14:23 | -33.13963 | -175.10683 | 31026 ft | 536 kts | 49° |
| 2026-04-22 14:23 | -33.11043 | -175.04133 | 31017 ft | 536 kts | 49° |
| 2026-04-22 14:24 | -33.06945 | -174.94959 | 31091 ft | 537 kts | 49° |
| 2026-04-22 14:24 | -33.05777 | -174.92355 | 31271 ft | 537 kts | 49° |
| 2026-04-22 14:24 | -33.04022 | -174.88449 | 31655 ft | 534 kts | 49° |
| 2026-04-22 14:24 | -33.01694 | -174.83278 | 32038 ft | 533 kts | 49° |
| 2026-04-22 14:25 | -33.00510 | -174.80652 | 32250 ft | 532 kts | 49° |
| 2026-04-22 14:25 | -32.98756 | -174.76764 | 32539 ft | 531 kts | 48° |
| 2026-04-22 14:25 | -32.97003 | -174.72882 | 32684 ft | 534 kts | 49° |
| 2026-04-22 14:25 | -32.95244 | -174.68990 | 32967 ft | 532 kts | 48° |
| 2026-04-22 14:26 | -32.93503 | -174.65145 | 33043 ft | 534 kts | 49° |
| 2026-04-22 14:26 | -32.90004 | -174.57313 | 33019 ft | 536 kts | 49° |
| 2026-04-22 14:27 | -32.86496 | -174.49489 | 33018 ft | 535 kts | 49° |
| 2026-04-22 14:27 | -32.82969 | -174.41679 | 33019 ft | 536 kts | 49° |
| 2026-04-22 14:28 | -32.79425 | -174.33862 | 33019 ft | 537 kts | 49° |
| 2026-04-22 14:28 | -32.75895 | -174.26094 | 33020 ft | 538 kts | 49° |
| 2026-04-22 14:29 | -32.72326 | -174.18262 | 33020 ft | 538 kts | 49° |
| 2026-04-22 14:29 | -32.68750 | -174.10429 | 33020 ft | 540 kts | 49° |
| 2026-04-22 14:30 | -32.65166 | -174.02595 | 33020 ft | 540 kts | 49° |
| 2026-04-22 14:30 | -32.61596 | -173.94812 | 33020 ft | 541 kts | 49° |
| 2026-04-22 14:31 | -32.57985 | -173.86955 | 33020 ft | 543 kts | 49° |
| 2026-04-22 14:31 | -32.54360 | -173.79084 | 33020 ft | 543 kts | 50° |
| 2026-04-22 14:32 | -32.50740 | -173.71241 | 33019 ft | 542 kts | 49° |
| 2026-04-22 14:32 | -32.47110 | -173.63393 | 33020 ft | 542 kts | 49° |
| 2026-04-22 14:33 | -32.43473 | -173.55547 | 33020 ft | 544 kts | 50° |
| 2026-04-22 14:33 | -32.39813 | -173.47667 | 33020 ft | 545 kts | 49° |
| 2026-04-22 14:34 | -32.36187 | -173.39879 | 33020 ft | 544 kts | 49° |
| 2026-04-22 14:34 | -32.32524 | -173.32026 | 33020 ft | 544 kts | 49° |
| 2026-04-22 14:35 | -32.28862 | -173.24195 | 33021 ft | 545 kts | 49° |
| 2026-04-22 14:35 | -32.25202 | -173.16381 | 33019 ft | 546 kts | 49° |
| 2026-04-22 14:36 | -32.21509 | -173.08517 | 33019 ft | 546 kts | 49° |
| 2026-04-22 14:36 | -32.17811 | -173.00658 | 33020 ft | 547 kts | 50° |
| 2026-04-22 14:37 | -32.14103 | -172.92793 | 33019 ft | 548 kts | 50° |
| 2026-04-22 14:37 | -32.10405 | -172.84967 | 33019 ft | 550 kts | 50° |
| 2026-04-22 14:38 | -32.06665 | -172.77068 | 33020 ft | 551 kts | 50° |
| 2026-04-22 14:38 | -32.02917 | -172.69171 | 33019 ft | 552 kts | 50° |
| 2026-04-22 14:39 | -31.99183 | -172.61320 | 33019 ft | 553 kts | 50° |
| 2026-04-22 14:39 | -31.95419 | -172.53420 | 33020 ft | 553 kts | 50° |
| 2026-04-22 14:40 | -31.89763 | -172.41583 | 33019 ft | 553 kts | 50° |
| 2026-04-22 14:40 | -31.85970 | -172.33665 | 33020 ft | 555 kts | 50° |
| 2026-04-22 14:41 | -31.82176 | -172.25761 | 33019 ft | 555 kts | 50° |
| 2026-04-22 14:41 | -31.78398 | -172.17909 | 33020 ft | 554 kts | 50° |
| 2026-04-22 14:42 | -31.74596 | -172.10022 | 33019 ft | 555 kts | 50° |
| 2026-04-22 14:42 | -31.70778 | -172.02119 | 33020 ft | 556 kts | 50° |
| 2026-04-22 14:43 | -31.66955 | -171.94223 | 33019 ft | 555 kts | 50° |
| 2026-04-22 14:43 | -31.63132 | -171.86342 | 33019 ft | 555 kts | 50° |
| 2026-04-22 14:44 | -31.59319 | -171.78500 | 33018 ft | 553 kts | 50° |
| 2026-04-22 14:44 | -31.55518 | -171.70698 | 33019 ft | 554 kts | 50° |
| 2026-04-22 14:45 | -31.51689 | -171.62853 | 33019 ft | 554 kts | 50° |
| 2026-04-22 14:45 | -31.47853 | -171.55011 | 33019 ft | 553 kts | 50° |
| 2026-04-22 14:46 | -31.44032 | -171.47215 | 33019 ft | 551 kts | 50° |
| 2026-04-22 14:46 | -31.40220 | -171.39456 | 33019 ft | 551 kts | 50° |
| 2026-04-22 14:47 | -31.36399 | -171.31692 | 33019 ft | 550 kts | 50° |
| 2026-04-22 14:47 | -31.32583 | -171.23954 | 33017 ft | 548 kts | 50° |
| 2026-04-22 14:48 | -31.28769 | -171.16237 | 33019 ft | 548 kts | 50° |
| 2026-04-22 14:48 | -31.24949 | -171.08522 | 33019 ft | 547 kts | 50° |
| 2026-04-22 14:49 | -31.21123 | -171.00812 | 33019 ft | 547 kts | 50° |
| 2026-04-22 14:49 | -31.17328 | -170.93177 | 33019 ft | 547 kts | 50° |
| 2026-04-22 14:50 | -31.13497 | -170.85487 | 33019 ft | 547 kts | 50° |
| 2026-04-22 14:50 | -31.09671 | -170.77821 | 33019 ft | 547 kts | 50° |
| 2026-04-22 14:51 | -31.05831 | -170.70145 | 33019 ft | 546 kts | 50° |
| 2026-04-22 14:51 | -31.02001 | -170.62503 | 33018 ft | 546 kts | 50° |
| 2026-04-22 14:52 | -30.98195 | -170.54921 | 33019 ft | 544 kts | 50° |
| 2026-04-22 14:52 | -30.94367 | -170.47314 | 33018 ft | 543 kts | 50° |
| 2026-04-22 14:53 | -30.90536 | -170.39714 | 33018 ft | 543 kts | 50° |
| 2026-04-22 14:53 | -30.86730 | -170.32174 | 33019 ft | 543 kts | 51° |
| 2026-04-22 14:54 | -30.82913 | -170.24576 | 33019 ft | 542 kts | 51° |
| 2026-04-22 14:54 | -30.79069 | -170.17010 | 33018 ft | 541 kts | 51° |
| 2026-04-22 14:55 | -30.75236 | -170.09487 | 33019 ft | 541 kts | 51° |
| 2026-04-22 14:55 | -30.71409 | -170.01991 | 33018 ft | 539 kts | 50° |
| 2026-04-22 14:56 | -30.67136 | -169.94896 | 33020 ft | 532 kts | 43° |
| 2026-04-22 14:56 | -30.62470 | -169.88349 | 33032 ft | 526 kts | 40° |
| 2026-04-22 14:57 | -30.57763 | -169.81850 | 33034 ft | 524 kts | 41° |
| 2026-04-22 14:57 | -30.53131 | -169.75295 | 33034 ft | 525 kts | 42° |
| 2026-04-22 14:58 | -30.48531 | -169.68750 | 33034 ft | 526 kts | 42° |
| 2026-04-22 14:58 | -30.43938 | -169.62152 | 33034 ft | 526 kts | 42° |
| 2026-04-22 14:59 | -30.39326 | -169.55567 | 33035 ft | 526 kts | 42° |
| 2026-04-22 14:59 | -30.34699 | -169.48987 | 33034 ft | 526 kts | 42° |
| 2026-04-22 15:00 | -30.30077 | -169.42427 | 33035 ft | 526 kts | 42° |
| 2026-04-22 15:00 | -30.25446 | -169.35866 | 33034 ft | 526 kts | 42° |
| 2026-04-22 15:01 | -30.20813 | -169.29312 | 33035 ft | 525 kts | 42° |
| 2026-04-22 15:01 | -30.16195 | -169.22753 | 33034 ft | 525 kts | 42° |
| 2026-04-22 15:02 | -30.11582 | -169.16257 | 33035 ft | 526 kts | 42° |
| 2026-04-22 15:02 | -30.06928 | -169.09721 | 33034 ft | 527 kts | 42° |
| 2026-04-22 15:03 | -30.02271 | -169.03187 | 33035 ft | 526 kts | 42° |
| 2026-04-22 15:03 | -29.97594 | -168.96701 | 33035 ft | 524 kts | 40° |
| 2026-04-22 15:04 | -29.92739 | -168.90461 | 33035 ft | 519 kts | 40° |
| 2026-04-22 15:04 | -29.87901 | -168.84298 | 33034 ft | 518 kts | 40° |
| 2026-04-22 15:05 | -29.83104 | -168.78140 | 33035 ft | 519 kts | 40° |
| 2026-04-22 15:05 | -29.78277 | -168.71935 | 33035 ft | 519 kts | 40° |
| 2026-04-22 15:06 | -29.73473 | -168.65710 | 33035 ft | 520 kts | 40° |
| 2026-04-22 15:06 | -29.68655 | -168.59471 | 33035 ft | 521 kts | 40° |
| 2026-04-22 15:07 | -29.63856 | -168.53287 | 33016 ft | 521 kts | 40° |
| 2026-04-22 15:07 | -29.59020 | -168.47072 | 33015 ft | 520 kts | 40° |
| 2026-04-22 15:08 | -29.55005 | -168.41921 | 33016 ft | 520 kts | 40° |
| 2026-04-22 15:08 | -29.49390 | -168.34731 | 33015 ft | 520 kts | 40° |
| 2026-04-22 15:09 | -29.44552 | -168.28545 | 33015 ft | 520 kts | 40° |
| 2026-04-22 15:09 | -29.40526 | -168.23405 | 33015 ft | 520 kts | 40° |
| 2026-04-22 15:10 | -29.35696 | -168.17247 | 33016 ft | 520 kts | 40° |
| 2026-04-22 15:10 | -29.30851 | -168.11080 | 33015 ft | 519 kts | 40° |
| 2026-04-22 15:11 | -29.26016 | -168.04934 | 33016 ft | 519 kts | 40° |
| 2026-04-22 15:11 | -29.21179 | -167.98796 | 33015 ft | 519 kts | 40° |
| 2026-04-22 15:12 | -29.16339 | -167.92665 | 33016 ft | 518 kts | 41° |
| 2026-04-22 15:12 | -29.11519 | -167.86565 | 33015 ft | 519 kts | 41° |
| 2026-04-22 15:13 | -29.06666 | -167.80435 | 33016 ft | 519 kts | 41° |
| 2026-04-22 15:13 | -29.01814 | -167.74314 | 33015 ft | 519 kts | 41° |
| 2026-04-22 15:14 | -28.96992 | -167.68241 | 33016 ft | 518 kts | 41° |
| 2026-04-22 15:14 | -28.92145 | -167.62146 | 33015 ft | 518 kts | 41° |
| 2026-04-22 15:15 | -28.87286 | -167.56044 | 33016 ft | 518 kts | 41° |
| 2026-04-22 15:15 | -28.82424 | -167.49949 | 33015 ft | 518 kts | 41° |
| 2026-04-22 15:16 | -28.77596 | -167.43904 | 33016 ft | 518 kts | 41° |
| 2026-04-22 15:16 | -28.72745 | -167.37840 | 33016 ft | 518 kts | 41° |
| 2026-04-22 15:17 | -28.67886 | -167.31774 | 33017 ft | 518 kts | 41° |
| 2026-04-22 15:17 | -28.63017 | -167.25705 | 33016 ft | 518 kts | 41° |
| 2026-04-22 15:18 | -28.58172 | -167.19676 | 33017 ft | 518 kts | 41° |
| 2026-04-22 15:18 | -28.53307 | -167.13630 | 33016 ft | 518 kts | 42° |
| 2026-04-22 15:19 | -28.48439 | -167.07589 | 33017 ft | 517 kts | 41° |
| 2026-04-22 15:19 | -28.43574 | -167.01562 | 33016 ft | 517 kts | 42° |
| 2026-04-22 15:20 | -28.38703 | -166.95534 | 33017 ft | 517 kts | 42° |
| 2026-04-22 15:20 | -28.33834 | -166.89519 | 33017 ft | 517 kts | 42° |
| 2026-04-22 15:21 | -28.28951 | -166.83496 | 33018 ft | 517 kts | 42° |
| 2026-04-22 15:21 | -28.24111 | -166.77533 | 33016 ft | 517 kts | 42° |
| 2026-04-22 15:22 | -28.19224 | -166.71522 | 33017 ft | 517 kts | 42° |
| 2026-04-22 15:22 | -28.14346 | -166.65530 | 33017 ft | 517 kts | 42° |
| 2026-04-22 15:23 | -28.09474 | -166.59552 | 33017 ft | 516 kts | 42° |
| 2026-04-22 15:23 | -28.04598 | -166.53583 | 33017 ft | 516 kts | 42° |
| 2026-04-22 15:24 | -27.99721 | -166.47618 | 33037 ft | 516 kts | 42° |
| 2026-04-22 15:24 | -27.94866 | -166.41689 | 33037 ft | 516 kts | 42° |
| 2026-04-22 15:25 | -27.89972 | -166.35720 | 33037 ft | 520 kts | 42° |
| 2026-04-22 15:25 | -27.85016 | -166.29685 | 33037 ft | 526 kts | 42° |
| 2026-04-22 15:26 | -27.80032 | -166.23625 | 33037 ft | 525 kts | 42° |
| 2026-04-22 15:26 | -27.75067 | -166.17596 | 33037 ft | 524 kts | 42° |
| 2026-04-22 15:27 | -27.70105 | -166.11579 | 33037 ft | 524 kts | 42° |
| 2026-04-22 15:27 | -27.65156 | -166.05587 | 33038 ft | 524 kts | 42° |
| 2026-04-22 15:28 | -27.60178 | -165.99569 | 33037 ft | 524 kts | 42° |
| 2026-04-22 15:28 | -27.55207 | -165.93567 | 33038 ft | 524 kts | 42° |
| 2026-04-22 15:29 | -27.50231 | -165.87568 | 33038 ft | 523 kts | 42° |
| 2026-04-22 15:30 | -27.42777 | -165.78596 | 33037 ft | 522 kts | 42° |
| 2026-04-22 15:30 | -27.37809 | -165.72629 | 33038 ft | 523 kts | 42° |
| 2026-04-22 15:31 | -27.32829 | -165.66654 | 33039 ft | 523 kts | 42° |
| 2026-04-22 15:31 | -27.27885 | -165.60731 | 33038 ft | 522 kts | 42° |
| 2026-04-22 15:32 | -27.22916 | -165.54786 | 33039 ft | 522 kts | 42° |
| 2026-04-22 15:32 | -27.17938 | -165.48840 | 33039 ft | 522 kts | 42° |
| 2026-04-22 15:33 | -27.12954 | -165.42894 | 33039 ft | 522 kts | 43° |
| 2026-04-22 15:33 | -27.07974 | -165.36961 | 33039 ft | 521 kts | 43° |
| 2026-04-22 15:34 | -27.02992 | -165.31033 | 33039 ft | 521 kts | 43° |
| 2026-04-22 15:34 | -26.98045 | -165.25149 | 33040 ft | 521 kts | 43° |
| 2026-04-22 15:35 | -26.93914 | -165.20224 | 33039 ft | 521 kts | 43° |
| 2026-04-22 15:35 | -26.88089 | -165.13330 | 33040 ft | 521 kts | 43° |
| 2026-04-22 15:36 | -26.83086 | -165.07421 | 33039 ft | 520 kts | 43° |
| 2026-04-22 15:36 | -26.78139 | -165.01584 | 33041 ft | 520 kts | 43° |
| 2026-04-22 15:37 | -26.72972 | -164.95920 | 33040 ft | 519 kts | 38° |
| 2026-04-22 15:37 | -26.67523 | -164.90648 | 33041 ft | 517 kts | 36° |
| 2026-04-22 15:38 | -26.62045 | -164.85414 | 33040 ft | 516 kts | 37° |
| 2026-04-22 15:38 | -26.53941 | -164.77530 | 33041 ft | 517 kts | 37° |
| 2026-04-22 15:39 | -26.48520 | -164.72214 | 33040 ft | 518 kts | 38° |
| 2026-04-22 15:39 | -26.43139 | -164.66916 | 33041 ft | 518 kts | 38° |
| 2026-04-22 15:40 | -26.37727 | -164.61608 | 33040 ft | 517 kts | 38° |
| 2026-04-22 15:40 | -26.32316 | -164.56313 | 33042 ft | 517 kts | 38° |
| 2026-04-22 15:41 | -26.26898 | -164.51022 | 33041 ft | 518 kts | 38° |
| 2026-04-22 15:41 | -26.21462 | -164.45719 | 33042 ft | 518 kts | 38° |
| 2026-04-22 15:42 | -26.16035 | -164.40433 | 33041 ft | 518 kts | 38° |
| 2026-04-22 15:42 | -26.10650 | -164.35195 | 33042 ft | 517 kts | 38° |
| 2026-04-22 15:43 | -26.05218 | -164.29918 | 33041 ft | 518 kts | 38° |
| 2026-04-22 15:43 | -25.99782 | -164.24643 | 33043 ft | 518 kts | 38° |
| 2026-04-22 15:44 | -25.94346 | -164.19376 | 33042 ft | 518 kts | 38° |
| 2026-04-22 15:44 | -25.88912 | -164.14116 | 33043 ft | 518 kts | 38° |
| 2026-04-22 15:45 | -25.83469 | -164.08855 | 33042 ft | 518 kts | 38° |
| 2026-04-22 15:45 | -25.78072 | -164.03645 | 33043 ft | 518 kts | 38° |
| 2026-04-22 15:46 | -25.72612 | -163.98380 | 33043 ft | 518 kts | 38° |
| 2026-04-22 15:46 | -25.67170 | -163.93140 | 33043 ft | 518 kts | 38° |
| 2026-04-22 15:47 | -25.61733 | -163.87911 | 33044 ft | 517 kts | 38° |
| 2026-04-22 15:47 | -25.56322 | -163.82714 | 33043 ft | 517 kts | 38° |
| 2026-04-22 15:48 | -25.50879 | -163.77493 | 33044 ft | 517 kts | 38° |
| 2026-04-22 15:48 | -25.45439 | -163.72280 | 33043 ft | 517 kts | 38° |
| 2026-04-22 15:49 | -25.39993 | -163.67068 | 33044 ft | 517 kts | 38° |
| 2026-04-22 15:49 | -25.34546 | -163.61863 | 33044 ft | 517 kts | 38° |
| 2026-04-22 15:50 | -25.29100 | -163.56663 | 33045 ft | 517 kts | 38° |
| 2026-04-22 15:50 | -25.23677 | -163.51493 | 33044 ft | 517 kts | 38° |
| 2026-04-22 15:51 | -25.18237 | -163.46311 | 33045 ft | 517 kts | 38° |
| 2026-04-22 15:51 | -25.12782 | -163.41124 | 33045 ft | 517 kts | 38° |
| 2026-04-22 15:52 | -25.07329 | -163.35945 | 33045 ft | 517 kts | 38° |
| 2026-04-22 15:52 | -25.01874 | -163.30769 | 33045 ft | 516 kts | 38° |
| 2026-04-22 15:53 | -24.96423 | -163.25604 | 33046 ft | 517 kts | 38° |
| 2026-04-22 15:53 | -24.90968 | -163.20441 | 33045 ft | 516 kts | 38° |
| 2026-04-22 15:54 | -24.86430 | -163.16151 | 33045 ft | 516 kts | 38° |
| 2026-04-22 15:54 | -24.80965 | -163.10990 | 33047 ft | 516 kts | 38° |
| 2026-04-22 15:55 | -24.75547 | -163.05879 | 33046 ft | 516 kts | 38° |
| 2026-04-22 15:55 | -24.70094 | -163.00742 | 33047 ft | 516 kts | 38° |
| 2026-04-22 15:56 | -24.64628 | -162.95599 | 33046 ft | 516 kts | 38° |
| 2026-04-22 15:56 | -24.59175 | -162.90474 | 33047 ft | 516 kts | 38° |
| 2026-04-22 15:57 | -24.53716 | -162.85349 | 33047 ft | 516 kts | 38° |
| 2026-04-22 15:57 | -24.48259 | -162.80232 | 33047 ft | 516 kts | 38° |
| 2026-04-22 15:58 | -24.42786 | -162.75107 | 33047 ft | 515 kts | 38° |
| 2026-04-22 15:58 | -24.37363 | -162.70035 | 33048 ft | 515 kts | 38° |
| 2026-04-22 15:59 | -24.31899 | -162.64929 | 33047 ft | 515 kts | 38° |
| 2026-04-22 15:59 | -24.26435 | -162.59828 | 33047 ft | 515 kts | 39° |
| 2026-04-22 16:00 | -24.20970 | -162.54735 | 33048 ft | 515 kts | 39° |
| 2026-04-22 16:00 | -24.15497 | -162.49641 | 33048 ft | 515 kts | 39° |
| 2026-04-22 16:01 | -24.10061 | -162.44585 | 33049 ft | 515 kts | 39° |
| 2026-04-22 16:01 | -24.04597 | -162.39509 | 33049 ft | 515 kts | 39° |
| 2026-04-22 16:02 | -23.99133 | -162.34440 | 33048 ft | 515 kts | 39° |
| 2026-04-22 16:02 | -23.93664 | -162.29371 | 33049 ft | 515 kts | 39° |
| 2026-04-22 16:03 | -23.88214 | -162.24326 | 33049 ft | 515 kts | 39° |
| 2026-04-22 16:03 | -23.82741 | -162.19265 | 33049 ft | 515 kts | 39° |
| 2026-04-22 16:04 | -23.77265 | -162.14209 | 33049 ft | 515 kts | 39° |
| 2026-04-22 16:04 | -23.71794 | -162.09162 | 33049 ft | 515 kts | 39° |
| 2026-04-22 16:05 | -23.66323 | -162.04120 | 33050 ft | 515 kts | 39° |
| 2026-04-22 16:05 | -23.60844 | -161.99077 | 33050 ft | 514 kts | 39° |
| 2026-04-22 16:06 | -23.55380 | -161.94053 | 33050 ft | 514 kts | 39° |
| 2026-04-22 16:06 | -23.49901 | -161.89022 | 33049 ft | 514 kts | 39° |
| 2026-04-22 16:07 | -23.44429 | -161.84004 | 33051 ft | 514 kts | 39° |
| 2026-04-22 16:07 | -23.38985 | -161.79015 | 33050 ft | 514 kts | 39° |
| 2026-04-22 16:08 | -23.33520 | -161.74012 | 33051 ft | 514 kts | 39° |
| 2026-04-22 16:08 | -23.28045 | -161.69006 | 33051 ft | 513 kts | 39° |
| 2026-04-22 16:09 | -23.22596 | -161.64031 | 33051 ft | 507 kts | 39° |
| 2026-04-22 16:09 | -23.17222 | -161.59129 | 33050 ft | 501 kts | 39° |
| 2026-04-22 16:10 | -23.11883 | -161.54264 | 33051 ft | 501 kts | 39° |
| 2026-04-22 16:10 | -23.06559 | -161.49418 | 33051 ft | 502 kts | 39° |
| 2026-04-22 16:11 | -23.01199 | -161.44543 | 33051 ft | 502 kts | 39° |
| 2026-04-22 16:11 | -22.95830 | -161.39667 | 33052 ft | 501 kts | 39° |
| 2026-04-22 16:12 | -22.90481 | -161.34814 | 33051 ft | 501 kts | 39° |
| 2026-04-22 16:12 | -22.85160 | -161.29991 | 33052 ft | 501 kts | 39° |
| 2026-04-22 16:13 | -22.79800 | -161.25138 | 33051 ft | 501 kts | 39° |
| 2026-04-22 16:13 | -22.74437 | -161.20287 | 33052 ft | 501 kts | 39° |
| 2026-04-22 16:14 | -22.69081 | -161.15448 | 33052 ft | 501 kts | 39° |
| 2026-04-22 16:14 | -22.63722 | -161.10610 | 33051 ft | 501 kts | 39° |
| 2026-04-22 16:15 | -22.58371 | -161.05786 | 33052 ft | 500 kts | 39° |
| 2026-04-22 16:15 | -22.53013 | -161.00960 | 33052 ft | 501 kts | 39° |
| 2026-04-22 16:16 | -22.47687 | -160.96168 | 33052 ft | 501 kts | 39° |
| 2026-04-22 16:16 | -22.42296 | -160.91320 | 33051 ft | 501 kts | 39° |
| 2026-04-22 16:17 | -22.36964 | -160.86534 | 33053 ft | 501 kts | 39° |
| 2026-04-22 16:17 | -22.31595 | -160.81706 | 33052 ft | 501 kts | 40° |
| 2026-04-22 16:18 | -22.26235 | -160.76897 | 33052 ft | 501 kts | 39° |
| 2026-04-22 16:18 | -22.20895 | -160.72123 | 33052 ft | 501 kts | 39° |
| 2026-04-22 16:19 | -22.15522 | -160.67324 | 33052 ft | 501 kts | 40° |
| 2026-04-22 16:19 | -22.10151 | -160.62530 | 33053 ft | 501 kts | 40° |
| 2026-04-22 16:20 | -22.04798 | -160.57699 | 33197 ft | 502 kts | 40° |
| 2026-04-22 16:20 | -22.02122 | -160.55267 | 33411 ft | 504 kts | 40° |
| 2026-04-22 16:20 | -21.99438 | -160.52831 | 33592 ft | 505 kts | 40° |
| 2026-04-22 16:21 | -21.96745 | -160.50390 | 33806 ft | 506 kts | 40° |
| 2026-04-22 16:21 | -21.94035 | -160.47934 | 33983 ft | 508 kts | 40° |
| 2026-04-22 16:21 | -21.91332 | -160.45486 | 34161 ft | 509 kts | 41° |
| 2026-04-22 16:21 | -21.88613 | -160.43026 | 34314 ft | 511 kts | 41° |
| 2026-04-22 16:22 | -21.83152 | -160.38089 | 34632 ft | 513 kts | 41° |
| 2026-04-22 16:22 | -21.80426 | -160.35612 | 34751 ft | 515 kts | 41° |
| 2026-04-22 16:22 | -21.77685 | -160.33121 | 34906 ft | 516 kts | 41° |
| 2026-04-22 16:23 | -21.72220 | -160.28173 | 35056 ft | 515 kts | 41° |
| 2026-04-22 16:23 | -21.66710 | -160.23196 | 35053 ft | 514 kts | 41° |
| 2026-04-22 16:24 | -21.58493 | -160.15785 | 35052 ft | 514 kts | 41° |
| 2026-04-22 16:25 | -21.53004 | -160.10842 | 35053 ft | 514 kts | 41° |
| 2026-04-22 16:25 | -21.44779 | -160.03444 | 35053 ft | 514 kts | 41° |
| 2026-04-22 16:26 | -21.39296 | -159.98502 | 35052 ft | 514 kts | 41° |
| 2026-04-22 16:26 | -21.33812 | -159.93584 | 35053 ft | 515 kts | 41° |
| 2026-04-22 16:27 | -21.28335 | -159.88680 | 35052 ft | 516 kts | 41° |
| 2026-04-22 16:27 | -21.22816 | -159.83743 | 35053 ft | 515 kts | 41° |
| 2026-04-22 16:28 | -21.17208 | -159.78948 | 35052 ft | 515 kts | 37° |
| 2026-04-22 16:28 | -21.11311 | -159.74608 | 35054 ft | 516 kts | 35° |
| 2026-04-22 16:29 | -21.05359 | -159.70330 | 35052 ft | 516 kts | 36° |
| 2026-04-22 16:29 | -20.99435 | -159.65976 | 35053 ft | 516 kts | 36° |
| 2026-04-22 16:30 | -20.93502 | -159.61589 | 35051 ft | 516 kts | 36° |
| 2026-04-22 16:30 | -20.87627 | -159.57224 | 35051 ft | 516 kts | 36° |
| 2026-04-22 16:31 | -20.81727 | -159.52846 | 35049 ft | 516 kts | 36° |
| 2026-04-22 16:31 | -20.75800 | -159.48460 | 35049 ft | 516 kts | 36° |
| 2026-04-22 16:32 | -20.69905 | -159.44102 | 35047 ft | 516 kts | 36° |
| 2026-04-22 16:32 | -20.64988 | -159.40470 | 35046 ft | 516 kts | 36° |
| 2026-04-22 16:33 | -20.59104 | -159.36131 | 35044 ft | 516 kts | 36° |
| 2026-04-22 16:33 | -20.53160 | -159.31748 | 35043 ft | 516 kts | 36° |
| 2026-04-22 16:34 | -20.47274 | -159.27404 | 35040 ft | 515 kts | 37° |
| 2026-04-22 16:34 | -20.41370 | -159.23058 | 35040 ft | 515 kts | 36° |
| 2026-04-22 16:35 | -20.35478 | -159.18733 | 35038 ft | 515 kts | 36° |
| 2026-04-22 16:35 | -20.29581 | -159.14406 | 35037 ft | 515 kts | 37° |
| 2026-04-22 16:36 | -20.23696 | -159.10093 | 35036 ft | 515 kts | 37° |
| 2026-04-22 16:36 | -20.17846 | -159.05650 | 35034 ft | 515 kts | 38° |
| 2026-04-22 16:37 | -20.12063 | -159.01129 | 35034 ft | 515 kts | 38° |
| 2026-04-22 16:37 | -20.06277 | -158.96636 | 35033 ft | 515 kts | 38° |
| 2026-04-22 16:38 | -20.00481 | -158.92152 | 35032 ft | 515 kts | 38° |
| 2026-04-22 16:38 | -19.94684 | -158.87674 | 35028 ft | 515 kts | 39° |
| 2026-04-22 16:39 | -19.88860 | -158.83156 | 35027 ft | 514 kts | 39° |
| 2026-04-22 16:39 | -19.83097 | -158.78700 | 35026 ft | 515 kts | 39° |
| 2026-04-22 16:40 | -19.77277 | -158.74208 | 35025 ft | 515 kts | 39° |
| 2026-04-22 16:41 | -19.68587 | -158.67514 | 35026 ft | 515 kts | 39° |
| 2026-04-22 16:41 | -19.62775 | -158.63043 | 35025 ft | 515 kts | 39° |
| 2026-04-22 16:42 | -19.56973 | -158.58584 | 35026 ft | 515 kts | 39° |
| 2026-04-22 16:42 | -19.51114 | -158.54085 | 35025 ft | 515 kts | 39° |
| 2026-04-22 16:43 | -19.45296 | -158.49621 | 35025 ft | 515 kts | 39° |
| 2026-04-22 16:43 | -19.39515 | -158.45190 | 35024 ft | 515 kts | 39° |
| 2026-04-22 16:44 | -19.33641 | -158.40692 | 35025 ft | 515 kts | 39° |
| 2026-04-22 16:44 | -19.27845 | -158.36257 | 35025 ft | 515 kts | 39° |
| 2026-04-22 16:45 | -19.22021 | -158.31805 | 35025 ft | 515 kts | 39° |
| 2026-04-22 16:45 | -19.16200 | -158.27359 | 35025 ft | 515 kts | 39° |
| 2026-04-22 16:46 | -19.10403 | -158.22934 | 35025 ft | 515 kts | 39° |
| 2026-04-22 16:46 | -19.04603 | -158.18512 | 35025 ft | 515 kts | 39° |
| 2026-04-22 16:47 | -18.98787 | -158.14082 | 35026 ft | 515 kts | 39° |
| 2026-04-22 16:47 | -18.92969 | -158.09654 | 35030 ft | 515 kts | 39° |
| 2026-04-22 16:48 | -18.87162 | -158.05238 | 35031 ft | 515 kts | 39° |
| 2026-04-22 16:48 | -18.81312 | -158.00794 | 35031 ft | 515 kts | 39° |
| 2026-04-22 16:49 | -18.75493 | -157.96377 | 35032 ft | 516 kts | 39° |
| 2026-04-22 16:49 | -18.69663 | -157.91955 | 35033 ft | 517 kts | 39° |
| 2026-04-22 16:50 | -18.63809 | -157.87519 | 35032 ft | 518 kts | 39° |
| 2026-04-22 16:50 | -18.57952 | -157.83084 | 35032 ft | 516 kts | 39° |
| 2026-04-22 16:51 | -18.52118 | -157.78670 | 35032 ft | 517 kts | 39° |
| 2026-04-22 16:51 | -18.46305 | -157.74276 | 35032 ft | 517 kts | 39° |
| 2026-04-22 16:52 | -18.40431 | -157.69841 | 35032 ft | 517 kts | 39° |
| 2026-04-22 16:52 | -18.34592 | -157.65436 | 35031 ft | 517 kts | 39° |
| 2026-04-22 16:53 | -18.28732 | -157.61018 | 35032 ft | 517 kts | 39° |
| 2026-04-22 16:53 | -18.22886 | -157.56613 | 35030 ft | 517 kts | 39° |
| 2026-04-22 16:54 | -18.17051 | -157.52222 | 35031 ft | 517 kts | 39° |
| 2026-04-22 16:54 | -18.11211 | -157.47831 | 35030 ft | 517 kts | 39° |
| 2026-04-22 16:55 | -18.05368 | -157.43441 | 35031 ft | 517 kts | 39° |
| 2026-04-22 16:55 | -17.99501 | -157.39036 | 35031 ft | 517 kts | 39° |
| 2026-04-22 16:56 | -17.93643 | -157.34642 | 35014 ft | 517 kts | 39° |
| 2026-04-22 16:56 | -17.87828 | -157.30282 | 35013 ft | 516 kts | 39° |
| 2026-04-22 16:57 | -17.81958 | -157.25887 | 35012 ft | 516 kts | 40° |
| 2026-04-22 16:57 | -17.76113 | -157.21513 | 35012 ft | 517 kts | 40° |
| 2026-04-22 16:58 | -17.71244 | -157.17864 | 35011 ft | 517 kts | 40° |
| 2026-04-22 16:58 | -17.64425 | -157.12766 | 35029 ft | 516 kts | 39° |
| 2026-04-22 16:59 | -17.58565 | -157.08396 | 35028 ft | 517 kts | 39° |
| 2026-04-22 16:59 | -17.52713 | -157.04034 | 35027 ft | 517 kts | 40° |
| 2026-04-22 17:00 | -17.46691 | -156.99937 | 35026 ft | 520 kts | 32° |
| 2026-04-22 17:00 | -17.36652 | -156.95379 | 35025 ft | 525 kts | 24° |
| 2026-04-22 17:01 | -17.29775 | -156.92731 | 35024 ft | 527 kts | 24° |
| 2026-04-22 17:01 | -17.22951 | -156.90018 | 35022 ft | 526 kts | 24° |
| 2026-04-22 17:02 | -17.16098 | -156.87241 | 35021 ft | 526 kts | 25° |
| 2026-04-22 17:02 | -17.09277 | -156.84454 | 35020 ft | 526 kts | 25° |
| 2026-04-22 17:03 | -17.02488 | -156.81682 | 35019 ft | 526 kts | 25° |
| 2026-04-22 17:03 | -16.95681 | -156.78905 | 35017 ft | 526 kts | 25° |
| 2026-04-22 17:04 | -16.88828 | -156.76113 | 35017 ft | 526 kts | 25° |
| 2026-04-22 17:04 | -16.82023 | -156.73343 | 35016 ft | 526 kts | 25° |
| 2026-04-22 17:05 | -16.75199 | -156.70567 | 35015 ft | 527 kts | 25° |
| 2026-04-22 17:05 | -16.68374 | -156.67793 | 35014 ft | 527 kts | 25° |
| 2026-04-22 17:06 | -16.62668 | -156.65476 | 35013 ft | 527 kts | 25° |
| 2026-04-22 17:06 | -16.54720 | -156.62250 | 35012 ft | 527 kts | 25° |
| 2026-04-22 17:07 | -16.49023 | -156.59939 | 35011 ft | 527 kts | 25° |
| 2026-04-22 17:07 | -16.42195 | -156.57171 | 35012 ft | 527 kts | 25° |
| 2026-04-22 17:08 | -16.34218 | -156.53942 | 35012 ft | 526 kts | 25° |
| 2026-04-22 17:08 | -16.28552 | -156.51650 | 35011 ft | 526 kts | 25° |
| 2026-04-22 17:09 | -16.21707 | -156.48881 | 35014 ft | 526 kts | 25° |
| 2026-04-22 17:09 | -16.14891 | -156.46128 | 35013 ft | 527 kts | 25° |
| 2026-04-22 17:10 | -16.08035 | -156.43359 | 35013 ft | 528 kts | 25° |
| 2026-04-22 17:10 | -16.01199 | -156.40602 | 35011 ft | 528 kts | 25° |
| 2026-04-22 17:11 | -15.94358 | -156.37844 | 35011 ft | 527 kts | 25° |
| 2026-04-22 17:11 | -15.87522 | -156.35090 | 35010 ft | 527 kts | 25° |
| 2026-04-22 17:12 | -15.80684 | -156.32337 | 35010 ft | 527 kts | 25° |
| 2026-04-22 17:12 | -15.73826 | -156.29578 | 35008 ft | 527 kts | 25° |
| 2026-04-22 17:13 | -15.66968 | -156.26821 | 35008 ft | 527 kts | 25° |
| 2026-04-22 17:13 | -15.60164 | -156.24088 | 35007 ft | 527 kts | 25° |
| 2026-04-22 17:14 | -15.53280 | -156.21325 | 35006 ft | 527 kts | 25° |
| 2026-04-22 17:14 | -15.46419 | -156.18572 | 35006 ft | 526 kts | 25° |
| 2026-04-22 17:15 | -15.39608 | -156.15842 | 35004 ft | 526 kts | 25° |
| 2026-04-22 17:15 | -15.32784 | -156.13108 | 35004 ft | 526 kts | 25° |
| 2026-04-22 17:16 | -15.25929 | -156.10359 | 35003 ft | 526 kts | 25° |
| 2026-04-22 17:16 | -15.19127 | -156.07638 | 35003 ft | 526 kts | 25° |
| 2026-04-22 17:17 | -15.12286 | -156.04905 | 35002 ft | 525 kts | 25° |
| 2026-04-22 17:17 | -15.05476 | -156.02187 | 35000 ft | 525 kts | 25° |
| 2026-04-22 17:18 | -14.98674 | -155.99468 | 35000 ft | 525 kts | 25° |
| 2026-04-22 17:18 | -14.91852 | -155.96681 | 35000 ft | 526 kts | 25° |
| 2026-04-22 17:19 | -14.78225 | -155.91118 | 34999 ft | 525 kts | 26° |
| 2026-04-22 17:20 | -14.64658 | -155.85584 | 34995 ft | 525 kts | 26° |
| 2026-04-22 17:21 | -14.54434 | -155.81414 | 34996 ft | 525 kts | 26° |
| 2026-04-22 17:22 | -14.44244 | -155.77266 | 34987 ft | 525 kts | 26° |
| 2026-04-22 17:23 | -14.34102 | -155.73142 | 34986 ft | 524 kts | 26° |
| 2026-04-22 17:23 | -14.23883 | -155.68992 | 34987 ft | 525 kts | 26° |
| 2026-04-22 17:24 | -14.17116 | -155.66246 | 34985 ft | 525 kts | 26° |
| 2026-04-22 17:24 | -14.10317 | -155.63488 | 34986 ft | 525 kts | 26° |
| 2026-04-22 17:25 | -14.03517 | -155.60733 | 34985 ft | 525 kts | 26° |
| 2026-04-22 17:25 | -13.96681 | -155.57964 | 34984 ft | 525 kts | 26° |
| 2026-04-22 17:26 | -13.89897 | -155.55218 | 34984 ft | 524 kts | 26° |
| 2026-04-22 17:26 | -13.83127 | -155.52478 | 34983 ft | 524 kts | 26° |
| 2026-04-22 17:27 | -13.76319 | -155.49727 | 34983 ft | 524 kts | 26° |
| 2026-04-22 17:27 | -13.69553 | -155.46994 | 34982 ft | 524 kts | 26° |
| 2026-04-22 17:28 | -13.62766 | -155.44254 | 34982 ft | 524 kts | 26° |
| 2026-04-22 17:28 | -13.55971 | -155.41512 | 34981 ft | 523 kts | 26° |
| 2026-04-22 17:29 | -13.49174 | -155.38771 | 34981 ft | 524 kts | 26° |
| 2026-04-22 17:29 | -13.42400 | -155.36041 | 34980 ft | 524 kts | 26° |
| 2026-04-22 17:30 | -13.35642 | -155.33319 | 34980 ft | 523 kts | 26° |
| 2026-04-22 17:30 | -13.28843 | -155.30582 | 34979 ft | 522 kts | 26° |
| 2026-04-22 17:31 | -13.25489 | -155.29233 | 34978 ft | 511 kts | 26° |
| 2026-04-22 17:31 | -13.22234 | -155.27924 | 34979 ft | 505 kts | 26° |
| 2026-04-22 17:31 | -13.15732 | -155.25309 | 34979 ft | 499 kts | 26° |
| 2026-04-22 17:32 | -13.09275 | -155.22714 | 34978 ft | 497 kts | 26° |
| 2026-04-22 17:32 | -13.02830 | -155.20126 | 34978 ft | 498 kts | 26° |
| 2026-04-22 17:33 | -12.96361 | -155.17530 | 34977 ft | 499 kts | 26° |
| 2026-04-22 17:33 | -12.89901 | -155.14938 | 34977 ft | 499 kts | 26° |
| 2026-04-22 17:34 | -12.83441 | -155.12348 | 34975 ft | 498 kts | 26° |
| 2026-04-22 17:34 | -12.77026 | -155.09778 | 34976 ft | 498 kts | 26° |
| 2026-04-22 17:35 | -12.70595 | -155.07202 | 34975 ft | 494 kts | 26° |
| 2026-04-22 17:35 | -12.64217 | -155.04649 | 34974 ft | 488 kts | 26° |
| 2026-04-22 17:36 | -12.57921 | -155.02131 | 34973 ft | 488 kts | 26° |
| 2026-04-22 17:36 | -12.51581 | -154.99596 | 34972 ft | 489 kts | 26° |
| 2026-04-22 17:37 | -12.45237 | -154.97061 | 34972 ft | 490 kts | 26° |
| 2026-04-22 17:37 | -12.38879 | -154.94521 | 34971 ft | 489 kts | 26° |
| 2026-04-22 17:38 | -12.32535 | -154.91988 | 34971 ft | 489 kts | 26° |
| 2026-04-22 17:38 | -12.26201 | -154.89461 | 34971 ft | 489 kts | 26° |
| 2026-04-22 17:39 | -12.19895 | -154.86946 | 34970 ft | 490 kts | 26° |
| 2026-04-22 17:40 | -12.10368 | -154.83149 | 34969 ft | 489 kts | 26° |
| 2026-04-22 17:40 | -12.04038 | -154.80628 | 34969 ft | 489 kts | 26° |
| 2026-04-22 17:41 | -11.97679 | -154.78097 | 34969 ft | 488 kts | 26° |
| 2026-04-22 17:41 | -11.91345 | -154.75575 | 34967 ft | 487 kts | 26° |
| 2026-04-22 17:42 | -11.85065 | -154.73079 | 34967 ft | 487 kts | 26° |
| 2026-04-22 17:42 | -11.79792 | -154.70983 | 34967 ft | 487 kts | 26° |
| 2026-04-22 17:43 | -11.72400 | -154.68046 | 34967 ft | 487 kts | 26° |
| 2026-04-22 17:43 | -11.66111 | -154.65548 | 34966 ft | 487 kts | 26° |
| 2026-04-22 17:44 | -11.59777 | -154.63035 | 34966 ft | 487 kts | 26° |
| 2026-04-22 17:44 | -11.53460 | -154.60529 | 34966 ft | 487 kts | 26° |
| 2026-04-22 17:45 | -11.47134 | -154.58020 | 34965 ft | 487 kts | 26° |
| 2026-04-22 17:45 | -11.41872 | -154.55935 | 34964 ft | 487 kts | 26° |
| 2026-04-22 17:46 | -11.35543 | -154.53427 | 34965 ft | 487 kts | 26° |
| 2026-04-22 17:46 | -11.29225 | -154.50925 | 34964 ft | 487 kts | 26° |
| 2026-04-22 17:47 | -11.22933 | -154.48435 | 34964 ft | 487 kts | 26° |
| 2026-04-22 17:47 | -11.16561 | -154.45914 | 34964 ft | 487 kts | 26° |
| 2026-04-22 17:48 | -11.10212 | -154.43404 | 34963 ft | 486 kts | 26° |
| 2026-04-22 17:48 | -11.03946 | -154.40927 | 34963 ft | 486 kts | 26° |
| 2026-04-22 17:49 | -10.97643 | -154.38437 | 34963 ft | 485 kts | 26° |
| 2026-04-22 17:49 | -10.91331 | -154.35944 | 34962 ft | 485 kts | 26° |
| 2026-04-22 17:50 | -10.85065 | -154.33471 | 34962 ft | 485 kts | 26° |
| 2026-04-22 17:50 | -10.78766 | -154.30985 | 34962 ft | 484 kts | 26° |
| 2026-04-22 17:51 | -10.72487 | -154.28510 | 34961 ft | 484 kts | 26° |
| 2026-04-22 17:51 | -10.66217 | -154.26038 | 34960 ft | 484 kts | 26° |
| 2026-04-22 17:52 | -10.59909 | -154.23553 | 34960 ft | 484 kts | 26° |
| 2026-04-22 17:52 | -10.53660 | -154.21092 | 34961 ft | 484 kts | 26° |
| 2026-04-22 17:53 | -10.47392 | -154.18625 | 34961 ft | 484 kts | 26° |
| 2026-04-22 17:53 | -10.41101 | -154.16149 | 34945 ft | 484 kts | 26° |
| 2026-04-22 17:54 | -10.34803 | -154.13672 | 34942 ft | 483 kts | 26° |
| 2026-04-22 17:54 | -10.28528 | -154.11203 | 34942 ft | 483 kts | 26° |
| 2026-04-22 17:55 | -10.22266 | -154.08740 | 34942 ft | 484 kts | 26° |
| 2026-04-22 17:55 | -10.15982 | -154.06273 | 34942 ft | 484 kts | 26° |
| 2026-04-22 17:56 | -10.09657 | -154.03790 | 34942 ft | 484 kts | 26° |
| 2026-04-22 17:56 | -10.03348 | -154.01315 | 34942 ft | 484 kts | 26° |
| 2026-04-22 17:57 | -9.97140 | -153.98739 | 34942 ft | 482 kts | 30° |
| 2026-04-22 17:57 | -9.91129 | -153.95711 | 34942 ft | 480 kts | 33° |
| 2026-04-22 17:58 | -9.85214 | -153.92597 | 34942 ft | 479 kts | 32° |
| 2026-04-22 17:58 | -9.79283 | -153.89542 | 34942 ft | 479 kts | 32° |
| 2026-04-22 17:59 | -9.73327 | -153.86510 | 34941 ft | 479 kts | 32° |
| 2026-04-22 17:59 | -9.67377 | -153.83491 | 34942 ft | 479 kts | 32° |
| 2026-04-22 18:00 | -9.62412 | -153.80971 | 34942 ft | 479 kts | 31° |
| 2026-04-22 18:00 | -9.55433 | -153.77437 | 34941 ft | 479 kts | 31° |
| 2026-04-22 18:01 | -9.49493 | -153.74433 | 34942 ft | 479 kts | 31° |
| 2026-04-22 18:01 | -9.43518 | -153.71413 | 34942 ft | 479 kts | 31° |
| 2026-04-22 18:02 | -9.37541 | -153.68393 | 34941 ft | 479 kts | 31° |
| 2026-04-22 18:02 | -9.31609 | -153.65398 | 34942 ft | 478 kts | 31° |
| 2026-04-22 18:03 | -9.25655 | -153.62392 | 34941 ft | 478 kts | 31° |
| 2026-04-22 18:03 | -9.19697 | -153.59385 | 34941 ft | 478 kts | 31° |
| 2026-04-22 18:04 | -9.13724 | -153.56372 | 34942 ft | 477 kts | 31° |
| 2026-04-22 18:04 | -9.07794 | -153.53382 | 34942 ft | 477 kts | 30° |
| 2026-04-22 18:05 | -9.01845 | -153.50384 | 34946 ft | 477 kts | 30° |
| 2026-04-22 18:05 | -8.95912 | -153.47394 | 34946 ft | 476 kts | 30° |
| 2026-04-22 18:06 | -8.90004 | -153.44418 | 34946 ft | 476 kts | 30° |
| 2026-04-22 18:06 | -8.84050 | -153.41421 | 34947 ft | 476 kts | 30° |
| 2026-04-22 18:07 | -8.78119 | -153.38436 | 34946 ft | 476 kts | 30° |
| 2026-04-22 18:07 | -8.72233 | -153.35474 | 34946 ft | 476 kts | 30° |
| 2026-04-22 18:08 | -8.66253 | -153.32466 | 34947 ft | 476 kts | 30° |
| 2026-04-22 18:08 | -8.60324 | -153.29485 | 34946 ft | 476 kts | 30° |
| 2026-04-22 18:09 | -8.54395 | -153.26505 | 34946 ft | 475 kts | 30° |
| 2026-04-22 18:09 | -8.48472 | -153.23529 | 34947 ft | 474 kts | 30° |
| 2026-04-22 18:10 | -8.42553 | -153.20557 | 34945 ft | 474 kts | 30° |
| 2026-04-22 18:10 | -8.36683 | -153.17609 | 34946 ft | 474 kts | 30° |
| 2026-04-22 18:11 | -8.30733 | -153.14623 | 34946 ft | 474 kts | 30° |
| 2026-04-22 18:11 | -8.24846 | -153.11669 | 34945 ft | 474 kts | 29° |
| 2026-04-22 18:12 | -8.18924 | -153.08699 | 34946 ft | 474 kts | 29° |
| 2026-04-22 18:12 | -8.13996 | -153.06228 | 34945 ft | 474 kts | 29° |
| 2026-04-22 18:13 | -8.07149 | -153.02796 | 34945 ft | 474 kts | 29° |
| 2026-04-22 18:13 | -8.01234 | -152.99832 | 34946 ft | 474 kts | 29° |
| 2026-04-22 18:14 | -7.95341 | -152.96878 | 34945 ft | 472 kts | 28° |
| 2026-04-22 18:14 | -7.89441 | -152.93924 | 34945 ft | 470 kts | 28° |
| 2026-04-22 18:15 | -7.83614 | -152.91008 | 34946 ft | 470 kts | 27° |
| 2026-04-22 18:15 | -7.77725 | -152.88061 | 34944 ft | 471 kts | 27° |
| 2026-04-22 18:16 | -7.71850 | -152.85122 | 34945 ft | 471 kts | 27° |
| 2026-04-22 18:16 | -7.66205 | -152.82299 | 34945 ft | 471 kts | 27° |
| 2026-04-22 18:17 | -7.60142 | -152.79268 | 34945 ft | 471 kts | 27° |
| 2026-04-22 18:17 | -7.54218 | -152.76307 | 34944 ft | 470 kts | 27° |
| 2026-04-22 18:18 | -7.48351 | -152.73376 | 34945 ft | 470 kts | 27° |
| 2026-04-22 18:18 | -7.42494 | -152.70449 | 34944 ft | 470 kts | 27° |
| 2026-04-22 18:19 | -7.36636 | -152.67524 | 34944 ft | 470 kts | 26° |
| 2026-04-22 18:19 | -7.30791 | -152.64607 | 34944 ft | 470 kts | 26° |
| 2026-04-22 18:20 | -7.25924 | -152.62178 | 34944 ft | 470 kts | 26° |
| 2026-04-22 18:20 | -7.20064 | -152.59254 | 34945 ft | 470 kts | 26° |
| 2026-04-22 18:21 | -7.14213 | -152.56336 | 34944 ft | 470 kts | 26° |
| 2026-04-22 18:21 | -7.08350 | -152.53411 | 34944 ft | 469 kts | 26° |
| 2026-04-22 18:22 | -7.01537 | -152.50016 | 34944 ft | 469 kts | 26° |
| 2026-04-22 18:22 | -6.96638 | -152.47574 | 34944 ft | 469 kts | 25° |
| 2026-04-22 18:23 | -6.90813 | -152.44672 | 34944 ft | 469 kts | 25° |
| 2026-04-22 18:23 | -6.84984 | -152.41768 | 34945 ft | 469 kts | 25° |
| 2026-04-22 18:24 | -6.76234 | -152.37412 | 34944 ft | 468 kts | 25° |
| 2026-04-22 18:25 | -6.67498 | -152.33064 | 34960 ft | 467 kts | 25° |
| 2026-04-22 18:25 | -6.61637 | -152.30148 | 34967 ft | 469 kts | 25° |
| 2026-04-22 18:26 | -6.52872 | -152.25788 | 34967 ft | 468 kts | 24° |
| 2026-04-22 18:26 | -6.47073 | -152.22904 | 34967 ft | 467 kts | 24° |
| 2026-04-22 18:27 | -6.41246 | -152.20008 | 34967 ft | 467 kts | 24° |
| 2026-04-22 18:27 | -6.35422 | -152.17113 | 34967 ft | 467 kts | 23° |
| 2026-04-22 18:28 | -6.29579 | -152.14210 | 34966 ft | 466 kts | 23° |
| 2026-04-22 18:28 | -6.23785 | -152.11332 | 34967 ft | 466 kts | 23° |
| 2026-04-22 18:29 | -6.17982 | -152.08450 | 34966 ft | 466 kts | 23° |
| 2026-04-22 18:29 | -6.12173 | -152.05566 | 34966 ft | 466 kts | 23° |
| 2026-04-22 18:30 | -6.03459 | -152.01241 | 34966 ft | 465 kts | 22° |
| 2026-04-22 18:31 | -5.97609 | -151.98339 | 34966 ft | 465 kts | 22° |
| 2026-04-22 18:31 | -5.91833 | -151.95473 | 34966 ft | 465 kts | 22° |
| 2026-04-22 18:32 | -5.85989 | -151.92575 | 34965 ft | 465 kts | 22° |
| 2026-04-22 18:32 | -5.80165 | -151.89687 | 34966 ft | 465 kts | 22° |
| 2026-04-22 18:33 | -5.74364 | -151.86812 | 34966 ft | 465 kts | 22° |
| 2026-04-22 18:33 | -5.68570 | -151.83940 | 34965 ft | 465 kts | 22° |
| 2026-04-22 18:34 | -5.62760 | -151.81061 | 34965 ft | 465 kts | 22° |
| 2026-04-22 18:34 | -5.56969 | -151.78192 | 34965 ft | 464 kts | 22° |
| 2026-04-22 18:35 | -5.51199 | -151.75334 | 34966 ft | 464 kts | 22° |
| 2026-04-22 18:35 | -5.45400 | -151.72463 | 34964 ft | 463 kts | 22° |
| 2026-04-22 18:36 | -5.39638 | -151.69610 | 34963 ft | 463 kts | 22° |
| 2026-04-22 18:36 | -5.33842 | -151.66742 | 34964 ft | 463 kts | 22° |
| 2026-04-22 18:37 | -5.28048 | -151.63873 | 34964 ft | 463 kts | 22° |
| 2026-04-22 18:37 | -5.22318 | -151.61037 | 34963 ft | 462 kts | 22° |
| 2026-04-22 18:38 | -5.16553 | -151.58185 | 34964 ft | 461 kts | 22° |
| 2026-04-22 18:38 | -5.10786 | -151.55334 | 34963 ft | 461 kts | 22° |
| 2026-04-22 18:39 | -5.02135 | -151.51057 | 34964 ft | 460 kts | 22° |
| 2026-04-22 18:39 | -4.96432 | -151.48217 | 34963 ft | 460 kts | 22° |
| 2026-04-22 18:40 | -4.90693 | -151.45336 | 34963 ft | 460 kts | 22° |
| 2026-04-22 18:40 | -4.84983 | -151.42471 | 34963 ft | 460 kts | 22° |
| 2026-04-22 18:41 | -4.79235 | -151.39588 | 34962 ft | 459 kts | 22° |
| 2026-04-22 18:41 | -4.73520 | -151.36721 | 34963 ft | 459 kts | 22° |
| 2026-04-22 18:42 | -4.67785 | -151.33845 | 34962 ft | 459 kts | 22° |
| 2026-04-22 18:42 | -4.62090 | -151.30986 | 34962 ft | 459 kts | 22° |
| 2026-04-22 18:43 | -4.56369 | -151.28117 | 34963 ft | 458 kts | 22° |
| 2026-04-22 18:43 | -4.50652 | -151.25251 | 34962 ft | 458 kts | 22° |
| 2026-04-22 18:44 | -4.44968 | -151.22402 | 34963 ft | 458 kts | 22° |
| 2026-04-22 18:44 | -4.39259 | -151.19541 | 34962 ft | 458 kts | 22° |
| 2026-04-22 18:45 | -4.33579 | -151.16695 | 34962 ft | 457 kts | 22° |
| 2026-04-22 18:45 | -4.27876 | -151.13838 | 34962 ft | 457 kts | 22° |
| 2026-04-22 18:46 | -4.22212 | -151.11001 | 34962 ft | 457 kts | 22° |
| 2026-04-22 18:46 | -4.16525 | -151.08153 | 34962 ft | 457 kts | 22° |
| 2026-04-22 18:47 | -4.10832 | -151.05303 | 34961 ft | 457 kts | 22° |
| 2026-04-22 18:47 | -4.05153 | -151.02459 | 34962 ft | 456 kts | 22° |
| 2026-04-22 18:48 | -3.99458 | -150.99609 | 34961 ft | 456 kts | 22° |
| 2026-04-22 18:48 | -3.93790 | -150.96772 | 34961 ft | 455 kts | 22° |
| 2026-04-22 18:49 | -3.88139 | -150.93944 | 34961 ft | 455 kts | 22° |
| 2026-04-22 18:49 | -3.82510 | -150.91128 | 34961 ft | 455 kts | 22° |
| 2026-04-22 18:50 | -3.76838 | -150.88291 | 34961 ft | 455 kts | 22° |
| 2026-04-22 18:50 | -3.71158 | -150.85450 | 34961 ft | 455 kts | 22° |
| 2026-04-22 18:51 | -3.65510 | -150.82625 | 34961 ft | 455 kts | 22° |
| 2026-04-22 18:51 | -3.59838 | -150.79789 | 34961 ft | 455 kts | 22° |
| 2026-04-22 18:52 | -3.54180 | -150.76960 | 34961 ft | 454 kts | 22° |
| 2026-04-22 18:52 | -3.48548 | -150.74145 | 34961 ft | 454 kts | 22° |
| 2026-04-22 18:53 | -3.42877 | -150.71311 | 34960 ft | 454 kts | 22° |
| 2026-04-22 18:53 | -3.37262 | -150.68504 | 34961 ft | 454 kts | 22° |
| 2026-04-22 18:54 | -3.31604 | -150.65677 | 34960 ft | 454 kts | 22° |
| 2026-04-22 18:54 | -3.25967 | -150.62861 | 34961 ft | 454 kts | 22° |
| 2026-04-22 18:55 | -3.20319 | -150.60039 | 34965 ft | 454 kts | 22° |
| 2026-04-22 18:55 | -3.14669 | -150.57217 | 34965 ft | 454 kts | 22° |
| 2026-04-22 18:56 | -3.09001 | -150.54386 | 34965 ft | 454 kts | 22° |
| 2026-04-22 18:56 | -3.03374 | -150.51576 | 34965 ft | 454 kts | 22° |
| 2026-04-22 18:57 | -2.97702 | -150.48744 | 34965 ft | 453 kts | 22° |
| 2026-04-22 18:57 | -2.92078 | -150.45935 | 34965 ft | 453 kts | 22° |
| 2026-04-22 18:58 | -2.87355 | -150.43578 | 34965 ft | 454 kts | 22° |
| 2026-04-22 18:58 | -2.81704 | -150.40757 | 34965 ft | 454 kts | 22° |
| 2026-04-22 18:59 | -2.75136 | -150.37479 | 34964 ft | 453 kts | 22° |
| 2026-04-22 18:59 | -2.69484 | -150.34658 | 34964 ft | 453 kts | 22° |
| 2026-04-22 19:00 | -2.64748 | -150.32295 | 34964 ft | 453 kts | 22° |
| 2026-04-22 19:00 | -2.59119 | -150.29486 | 34965 ft | 453 kts | 22° |
| 2026-04-22 19:01 | -2.53494 | -150.26680 | 34964 ft | 453 kts | 22° |
| 2026-04-22 19:01 | -2.47845 | -150.23861 | 34964 ft | 453 kts | 22° |
| 2026-04-22 19:02 | -2.42167 | -150.21029 | 34964 ft | 453 kts | 22° |
| 2026-04-22 19:02 | -2.36538 | -150.18221 | 34964 ft | 453 kts | 22° |
| 2026-04-22 19:03 | -2.30884 | -150.15401 | 34964 ft | 453 kts | 22° |
| 2026-04-22 19:03 | -2.25271 | -150.12601 | 34964 ft | 453 kts | 22° |
| 2026-04-22 19:04 | -2.19628 | -150.09787 | 34964 ft | 453 kts | 22° |
| 2026-04-22 19:04 | -2.13963 | -150.06963 | 34963 ft | 453 kts | 22° |
| 2026-04-22 19:05 | -2.08306 | -150.04142 | 34964 ft | 453 kts | 22° |
| 2026-04-22 19:05 | -2.02673 | -150.01334 | 34963 ft | 453 kts | 22° |
| 2026-04-22 19:06 | -1.96879 | -149.98893 | 34965 ft | 450 kts | 15° |
| 2026-04-22 19:07 | -1.87868 | -149.96197 | 34963 ft | 448 kts | 12° |
| 2026-04-22 19:07 | -1.81894 | -149.94472 | 34963 ft | 447 kts | 13° |
| 2026-04-22 19:08 | -1.75941 | -149.92699 | 34963 ft | 448 kts | 13° |
| 2026-04-22 19:08 | -1.69954 | -149.90897 | 34963 ft | 448 kts | 13° |
| 2026-04-22 19:09 | -1.63987 | -149.89093 | 34963 ft | 448 kts | 13° |
| 2026-04-22 19:09 | -1.58037 | -149.87292 | 34963 ft | 448 kts | 13° |
| 2026-04-22 19:10 | -1.52041 | -149.85477 | 34962 ft | 448 kts | 13° |
| 2026-04-22 19:10 | -1.46052 | -149.83664 | 34962 ft | 448 kts | 13° |
| 2026-04-22 19:11 | -1.40073 | -149.81853 | 34963 ft | 448 kts | 13° |
| 2026-04-22 19:11 | -1.34109 | -149.80047 | 34962 ft | 448 kts | 13° |
| 2026-04-22 19:12 | -1.28121 | -149.78235 | 34963 ft | 449 kts | 13° |
| 2026-04-22 19:12 | -1.22159 | -149.76430 | 34963 ft | 449 kts | 14° |
| 2026-04-22 19:13 | -1.16184 | -149.74620 | 34961 ft | 449 kts | 14° |
| 2026-04-22 19:13 | -1.10211 | -149.72813 | 34962 ft | 450 kts | 14° |
| 2026-04-22 19:14 | -1.04202 | -149.70994 | 34963 ft | 450 kts | 14° |
| 2026-04-22 19:14 | -0.98207 | -149.69179 | 34962 ft | 450 kts | 14° |
| 2026-04-22 19:15 | -0.93225 | -149.67670 | 34960 ft | 450 kts | 14° |
| 2026-04-22 19:15 | -0.86216 | -149.65549 | 34962 ft | 451 kts | 14° |
| 2026-04-22 19:16 | -0.80196 | -149.63727 | 34962 ft | 451 kts | 14° |
| 2026-04-22 19:16 | -0.74178 | -149.61906 | 34961 ft | 451 kts | 14° |
| 2026-04-22 19:17 | -0.68181 | -149.60091 | 34960 ft | 451 kts | 14° |
| 2026-04-22 19:17 | -0.62145 | -149.58264 | 34960 ft | 451 kts | 14° |
| 2026-04-22 19:18 | -0.56147 | -149.56448 | 34960 ft | 452 kts | 14° |
| 2026-04-22 19:18 | -0.50116 | -149.54623 | 34960 ft | 452 kts | 14° |
| 2026-04-22 19:19 | -0.44092 | -149.52800 | 34959 ft | 452 kts | 14° |
| 2026-04-22 19:19 | -0.38083 | -149.50981 | 34959 ft | 452 kts | 14° |
| 2026-04-22 19:20 | -0.32060 | -149.49111 | 34959 ft | 453 kts | 17° |
| 2026-04-22 19:20 | -0.26272 | -149.46687 | 34960 ft | 455 kts | 22° |
| 2026-04-22 19:21 | -0.20586 | -149.43933 | 34959 ft | 455 kts | 24° |
| 2026-04-22 19:21 | -0.14843 | -149.41160 | 34960 ft | 455 kts | 23° |
| 2026-04-22 19:22 | -0.09147 | -149.38464 | 34959 ft | 455 kts | 23° |
| 2026-04-22 19:22 | -0.03391 | -149.35762 | 34960 ft | 455 kts | 22° |
| 2026-04-22 19:23 | 0.02347 | -149.33076 | 34960 ft | 455 kts | 22° |
| 2026-04-22 19:23 | 0.08088 | -149.30393 | 34959 ft | 455 kts | 22° |
| 2026-04-22 19:24 | 0.13803 | -149.27723 | 34959 ft | 455 kts | 22° |
| 2026-04-22 19:24 | 0.19535 | -149.25044 | 34959 ft | 455 kts | 22° |
| 2026-04-22 19:25 | 0.25284 | -149.22360 | 34960 ft | 455 kts | 22° |
| 2026-04-22 19:25 | 0.31025 | -149.19679 | 34959 ft | 454 kts | 22° |
| 2026-04-22 19:26 | 0.36738 | -149.17011 | 34960 ft | 455 kts | 22° |
| 2026-04-22 19:26 | 0.42468 | -149.14335 | 34960 ft | 455 kts | 22° |
| 2026-04-22 19:27 | 0.48187 | -149.11664 | 34960 ft | 455 kts | 22° |
| 2026-04-22 19:27 | 0.53951 | -149.08972 | 34960 ft | 455 kts | 22° |
| 2026-04-22 19:28 | 0.59660 | -149.06306 | 34960 ft | 455 kts | 22° |
| 2026-04-22 19:28 | 0.65396 | -149.03627 | 34960 ft | 455 kts | 22° |
| 2026-04-22 19:29 | 0.71136 | -149.00946 | 34960 ft | 455 kts | 22° |
| 2026-04-22 19:29 | 0.76872 | -148.98266 | 34960 ft | 455 kts | 22° |
| 2026-04-22 19:30 | 0.80690 | -148.96483 | 34960 ft | 455 kts | 22° |
| 2026-04-22 19:30 | 0.88312 | -148.92922 | 34960 ft | 455 kts | 22° |
| 2026-04-22 19:31 | 0.93079 | -148.90696 | 34960 ft | 455 kts | 22° |
| 2026-04-22 19:31 | 0.99767 | -148.87571 | 34960 ft | 455 kts | 22° |
| 2026-04-22 19:32 | 1.04575 | -148.85325 | 34960 ft | 455 kts | 22° |
| 2026-04-22 19:32 | 1.10294 | -148.82653 | 34960 ft | 455 kts | 22° |
| 2026-04-22 19:33 | 1.16035 | -148.79971 | 34960 ft | 455 kts | 22° |
| 2026-04-22 19:33 | 1.21751 | -148.77300 | 34960 ft | 455 kts | 22° |
| 2026-04-22 19:34 | 1.27507 | -148.74611 | 34961 ft | 455 kts | 22° |
| 2026-04-22 19:34 | 1.33224 | -148.71939 | 34960 ft | 455 kts | 22° |
| 2026-04-22 19:35 | 1.38974 | -148.69252 | 34961 ft | 455 kts | 22° |
| 2026-04-22 19:35 | 1.44753 | -148.66552 | 34961 ft | 455 kts | 22° |
| 2026-04-22 19:36 | 1.50508 | -148.63862 | 34960 ft | 455 kts | 22° |
| 2026-04-22 19:36 | 1.56219 | -148.61192 | 34960 ft | 455 kts | 22° |
| 2026-04-22 19:37 | 1.61968 | -148.58506 | 34961 ft | 455 kts | 22° |
| 2026-04-22 19:37 | 1.67713 | -148.55820 | 34961 ft | 455 kts | 22° |
| 2026-04-22 19:38 | 1.73468 | -148.53130 | 34961 ft | 455 kts | 22° |
| 2026-04-22 19:38 | 1.79220 | -148.50441 | 34961 ft | 455 kts | 22° |
| 2026-04-22 19:39 | 1.84942 | -148.47766 | 34961 ft | 455 kts | 22° |
| 2026-04-22 19:39 | 1.90673 | -148.45086 | 34961 ft | 455 kts | 22° |
| 2026-04-22 19:40 | 1.96424 | -148.42397 | 34961 ft | 455 kts | 22° |
| 2026-04-22 19:40 | 2.02144 | -148.39722 | 34983 ft | 455 kts | 23° |
| 2026-04-22 19:41 | 2.07912 | -148.37025 | 34992 ft | 456 kts | 23° |
| 2026-04-22 19:41 | 2.13680 | -148.34327 | 34993 ft | 456 kts | 23° |
| 2026-04-22 19:42 | 2.19459 | -148.31624 | 34993 ft | 456 kts | 23° |
| 2026-04-22 19:42 | 2.25193 | -148.28941 | 34993 ft | 456 kts | 23° |
| 2026-04-22 19:43 | 2.33793 | -148.24918 | 34994 ft | 456 kts | 23° |
| 2026-04-22 19:43 | 2.39528 | -148.22234 | 34995 ft | 456 kts | 23° |
| 2026-04-22 19:44 | 2.45295 | -148.19536 | 34995 ft | 456 kts | 23° |
| 2026-04-22 19:44 | 2.51042 | -148.16847 | 34995 ft | 456 kts | 23° |
| 2026-04-22 19:45 | 2.56792 | -148.14156 | 34996 ft | 457 kts | 23° |
| 2026-04-22 19:45 | 2.62555 | -148.11457 | 34996 ft | 457 kts | 23° |
| 2026-04-22 19:46 | 2.68290 | -148.08773 | 34996 ft | 458 kts | 23° |
| 2026-04-22 19:46 | 2.74074 | -148.06065 | 34997 ft | 458 kts | 23° |
| 2026-04-22 19:47 | 2.79858 | -148.03357 | 34998 ft | 458 kts | 23° |
| 2026-04-22 19:47 | 2.85630 | -148.00654 | 34998 ft | 459 kts | 23° |
| 2026-04-22 19:48 | 2.91394 | -147.97955 | 34999 ft | 458 kts | 23° |
| 2026-04-22 19:48 | 2.97210 | -147.95231 | 34999 ft | 457 kts | 23° |
| 2026-04-22 19:49 | 3.02939 | -147.92547 | 34999 ft | 458 kts | 23° |
| 2026-04-22 19:49 | 3.08740 | -147.89829 | 35000 ft | 458 kts | 23° |
| 2026-04-22 19:50 | 3.14501 | -147.87130 | 35000 ft | 459 kts | 23° |
| 2026-04-22 19:50 | 3.20305 | -147.84410 | 35000 ft | 460 kts | 23° |
| 2026-04-22 19:51 | 3.26085 | -147.81702 | 35001 ft | 460 kts | 23° |
| 2026-04-22 19:51 | 3.31882 | -147.78985 | 35002 ft | 461 kts | 23° |
| 2026-04-22 19:52 | 3.37706 | -147.76254 | 35002 ft | 461 kts | 23° |
| 2026-04-22 19:52 | 3.43497 | -147.73539 | 35003 ft | 461 kts | 23° |
| 2026-04-22 19:53 | 3.49323 | -147.70807 | 35003 ft | 462 kts | 23° |
| 2026-04-22 19:53 | 3.55146 | -147.68077 | 35003 ft | 462 kts | 23° |
| 2026-04-22 19:54 | 3.60943 | -147.65358 | 35004 ft | 462 kts | 23° |
| 2026-04-22 19:54 | 3.66793 | -147.62613 | 35005 ft | 462 kts | 23° |
| 2026-04-22 19:55 | 3.72618 | -147.59880 | 35005 ft | 463 kts | 23° |
| 2026-04-22 19:55 | 3.78445 | -147.57146 | 35005 ft | 463 kts | 23° |
| 2026-04-22 19:56 | 3.84290 | -147.54403 | 35006 ft | 463 kts | 23° |
| 2026-04-22 19:56 | 3.90108 | -147.51671 | 35007 ft | 463 kts | 23° |
| 2026-04-22 19:57 | 3.95924 | -147.48941 | 35007 ft | 463 kts | 23° |
| 2026-04-22 19:57 | 4.01773 | -147.46195 | 35006 ft | 463 kts | 23° |
| 2026-04-22 19:58 | 4.07606 | -147.43455 | 35008 ft | 464 kts | 23° |
| 2026-04-22 19:58 | 4.13488 | -147.40693 | 35008 ft | 465 kts | 23° |
| 2026-04-22 20:00 | 4.33954 | -147.31077 | 35010 ft | 464 kts | 23° |
| 2026-04-22 20:01 | 4.39800 | -147.28329 | 35011 ft | 464 kts | 23° |
| 2026-04-22 20:01 | 4.45664 | -147.25572 | 35011 ft | 464 kts | 23° |
| 2026-04-22 20:02 | 4.50518 | -147.23290 | 35012 ft | 464 kts | 23° |
| 2026-04-22 20:02 | 4.57316 | -147.20092 | 35013 ft | 464 kts | 23° |
| 2026-04-22 20:03 | 4.63202 | -147.17324 | 35013 ft | 465 kts | 23° |
| 2026-04-22 20:03 | 4.69017 | -147.14587 | 35014 ft | 465 kts | 23° |
| 2026-04-22 20:04 | 4.73922 | -147.12281 | 35014 ft | 465 kts | 23° |
| 2026-04-22 20:04 | 4.79747 | -147.09539 | 35013 ft | 465 kts | 23° |
| 2026-04-22 20:05 | 4.86570 | -147.06327 | 35015 ft | 465 kts | 23° |
| 2026-04-22 20:05 | 4.91455 | -147.04026 | 35016 ft | 465 kts | 23° |
| 2026-04-22 20:06 | 4.97318 | -147.01265 | 35017 ft | 465 kts | 23° |
| 2026-04-22 20:06 | 5.03097 | -146.98368 | 35017 ft | 466 kts | 27° |
| 2026-04-22 20:07 | 5.08693 | -146.95060 | 35017 ft | 467 kts | 30° |
| 2026-04-22 20:07 | 5.14232 | -146.91654 | 35018 ft | 467 kts | 29° |
| 2026-04-22 20:08 | 5.19820 | -146.88282 | 35019 ft | 468 kts | 29° |
| 2026-04-22 20:08 | 5.25421 | -146.84937 | 35019 ft | 468 kts | 28° |
| 2026-04-22 20:09 | 5.31019 | -146.81607 | 35020 ft | 468 kts | 28° |
| 2026-04-22 20:09 | 5.36601 | -146.78294 | 35021 ft | 468 kts | 28° |
| 2026-04-22 20:10 | 5.42213 | -146.74963 | 35021 ft | 468 kts | 28° |
| 2026-04-22 20:10 | 5.47809 | -146.71639 | 35022 ft | 469 kts | 28° |
| 2026-04-22 20:11 | 5.53422 | -146.68306 | 35022 ft | 469 kts | 28° |
| 2026-04-22 20:11 | 5.59059 | -146.64957 | 35023 ft | 469 kts | 28° |
| 2026-04-22 20:12 | 5.64678 | -146.61617 | 35023 ft | 469 kts | 28° |
| 2026-04-22 20:12 | 5.70268 | -146.58295 | 35024 ft | 469 kts | 28° |
| 2026-04-22 20:13 | 5.75895 | -146.54950 | 35025 ft | 469 kts | 28° |
| 2026-04-22 20:13 | 5.81504 | -146.51614 | 35025 ft | 469 kts | 28° |
| 2026-04-22 20:14 | 5.87153 | -146.48255 | 35026 ft | 470 kts | 28° |
| 2026-04-22 20:14 | 5.92744 | -146.44928 | 35026 ft | 470 kts | 28° |
| 2026-04-22 20:15 | 5.98378 | -146.41576 | 35027 ft | 470 kts | 28° |
| 2026-04-22 20:15 | 6.04002 | -146.38228 | 35028 ft | 470 kts | 28° |
| 2026-04-22 20:16 | 6.09657 | -146.34862 | 35029 ft | 471 kts | 28° |
| 2026-04-22 20:16 | 6.15306 | -146.31498 | 35029 ft | 471 kts | 28° |
| 2026-04-22 20:17 | 6.20903 | -146.28164 | 35029 ft | 471 kts | 28° |
| 2026-04-22 20:17 | 6.26565 | -146.24791 | 35030 ft | 471 kts | 28° |
| 2026-04-22 20:18 | 6.32184 | -146.21442 | 35031 ft | 471 kts | 28° |
| 2026-04-22 20:18 | 6.37851 | -146.18064 | 35032 ft | 471 kts | 28° |
| 2026-04-22 20:19 | 6.43480 | -146.14708 | 35032 ft | 471 kts | 28° |
| 2026-04-22 20:19 | 6.49145 | -146.11329 | 35033 ft | 472 kts | 28° |
| 2026-04-22 20:20 | 6.54775 | -146.07971 | 35033 ft | 472 kts | 28° |
| 2026-04-22 20:20 | 6.60432 | -146.04595 | 35034 ft | 472 kts | 28° |
| 2026-04-22 20:21 | 6.66080 | -146.01224 | 35035 ft | 473 kts | 28° |
| 2026-04-22 20:21 | 6.71728 | -145.97852 | 35036 ft | 474 kts | 28° |
| 2026-04-22 20:22 | 6.77417 | -145.94454 | 35036 ft | 474 kts | 28° |
| 2026-04-22 20:22 | 6.83078 | -145.91073 | 35037 ft | 475 kts | 28° |
| 2026-04-22 20:23 | 6.88787 | -145.87661 | 35038 ft | 476 kts | 28° |
| 2026-04-22 20:23 | 6.94468 | -145.84265 | 35038 ft | 476 kts | 28° |
| 2026-04-22 20:24 | 7.00160 | -145.80862 | 35039 ft | 477 kts | 28° |
| 2026-04-22 20:24 | 7.05928 | -145.77412 | 35039 ft | 477 kts | 28° |
| 2026-04-22 20:25 | 7.11633 | -145.74000 | 35030 ft | 478 kts | 28° |
| 2026-04-22 20:25 | 7.17349 | -145.70580 | 35029 ft | 479 kts | 28° |
| 2026-04-22 20:26 | 7.23103 | -145.67135 | 35030 ft | 479 kts | 28° |
| 2026-04-22 20:26 | 7.28808 | -145.63719 | 35030 ft | 480 kts | 28° |
| 2026-04-22 20:27 | 7.34564 | -145.60271 | 35031 ft | 480 kts | 28° |
| 2026-04-22 20:27 | 7.40310 | -145.56829 | 35032 ft | 481 kts | 28° |
| 2026-04-22 20:28 | 7.46062 | -145.53382 | 35032 ft | 481 kts | 28° |
| 2026-04-22 20:28 | 7.51807 | -145.49938 | 35033 ft | 481 kts | 27° |
| 2026-04-22 20:29 | 7.57579 | -145.46476 | 35033 ft | 482 kts | 27° |
| 2026-04-22 20:29 | 7.63298 | -145.43045 | 35034 ft | 482 kts | 27° |
| 2026-04-22 20:30 | 7.69075 | -145.39579 | 35034 ft | 482 kts | 27° |
| 2026-04-22 20:30 | 7.74834 | -145.36122 | 35035 ft | 482 kts | 27° |
| 2026-04-22 20:31 | 7.80613 | -145.32652 | 35035 ft | 482 kts | 27° |
| 2026-04-22 20:31 | 7.86364 | -145.29198 | 35036 ft | 482 kts | 27° |
| 2026-04-22 20:32 | 7.92163 | -145.25714 | 35037 ft | 482 kts | 27° |
| 2026-04-22 20:32 | 7.97900 | -145.22266 | 35037 ft | 482 kts | 27° |
| 2026-04-22 20:33 | 8.03676 | -145.18793 | 35038 ft | 482 kts | 27° |
| 2026-04-22 20:33 | 8.09460 | -145.15314 | 35038 ft | 483 kts | 27° |
| 2026-04-22 20:34 | 8.15203 | -145.11859 | 35039 ft | 483 kts | 27° |
| 2026-04-22 20:34 | 8.20997 | -145.08372 | 35040 ft | 483 kts | 27° |
| 2026-04-22 20:35 | 8.26750 | -145.04909 | 35040 ft | 482 kts | 27° |
| 2026-04-22 20:35 | 8.32513 | -145.01438 | 35041 ft | 482 kts | 27° |
| 2026-04-22 20:36 | 8.38269 | -144.97970 | 35042 ft | 482 kts | 27° |
| 2026-04-22 20:36 | 8.44042 | -144.94490 | 35042 ft | 482 kts | 27° |
| 2026-04-22 20:37 | 8.49806 | -144.91015 | 35042 ft | 483 kts | 27° |
| 2026-04-22 20:37 | 8.55599 | -144.87521 | 35043 ft | 482 kts | 27° |
| 2026-04-22 20:38 | 8.61339 | -144.84058 | 35042 ft | 482 kts | 27° |
| 2026-04-22 20:38 | 8.67084 | -144.80592 | 35044 ft | 482 kts | 27° |
| 2026-04-22 20:39 | 8.72865 | -144.77101 | 35044 ft | 482 kts | 27° |
| 2026-04-22 20:39 | 8.78627 | -144.73621 | 35045 ft | 482 kts | 27° |
| 2026-04-22 20:40 | 8.84387 | -144.70141 | 35046 ft | 482 kts | 27° |
| 2026-04-22 20:40 | 8.90124 | -144.66674 | 35046 ft | 482 kts | 27° |
| 2026-04-22 20:41 | 8.95876 | -144.63196 | 35047 ft | 482 kts | 27° |
| 2026-04-22 20:41 | 9.01649 | -144.59704 | 35047 ft | 483 kts | 28° |
| 2026-04-22 20:42 | 9.07411 | -144.56216 | 35047 ft | 483 kts | 28° |
| 2026-04-22 20:42 | 9.12231 | -144.53299 | 35048 ft | 483 kts | 28° |
| 2026-04-22 20:43 | 9.18014 | -144.49798 | 35049 ft | 483 kts | 28° |
| 2026-04-22 20:43 | 9.23755 | -144.46320 | 35050 ft | 484 kts | 28° |
| 2026-04-22 20:44 | 9.29543 | -144.42813 | 35049 ft | 484 kts | 28° |
| 2026-04-22 20:44 | 9.35317 | -144.39312 | 35051 ft | 484 kts | 28° |
| 2026-04-22 20:45 | 9.41112 | -144.35797 | 35050 ft | 485 kts | 28° |
| 2026-04-22 20:45 | 9.46925 | -144.32271 | 35052 ft | 485 kts | 28° |
| 2026-04-22 20:46 | 9.55561 | -144.27028 | 35052 ft | 486 kts | 28° |
| 2026-04-22 20:46 | 9.61374 | -144.23498 | 35053 ft | 487 kts | 28° |
| 2026-04-22 20:47 | 9.67211 | -144.19951 | 35053 ft | 487 kts | 28° |
| 2026-04-22 20:47 | 9.73003 | -144.16432 | 35054 ft | 488 kts | 28° |
| 2026-04-22 20:48 | 9.78859 | -144.12875 | 35054 ft | 488 kts | 28° |
| 2026-04-22 20:48 | 9.84692 | -144.09325 | 35055 ft | 488 kts | 28° |
| 2026-04-22 20:49 | 9.90507 | -144.05784 | 35055 ft | 488 kts | 28° |
| 2026-04-22 20:49 | 9.96333 | -144.02235 | 35056 ft | 488 kts | 29° |
| 2026-04-22 20:50 | 10.02180 | -143.98684 | 35057 ft | 488 kts | 28° |
| 2026-04-22 20:50 | 10.08063 | -143.95236 | 35057 ft | 488 kts | 27° |
| 2026-04-22 20:51 | 10.13913 | -143.91814 | 35057 ft | 488 kts | 28° |
| 2026-04-22 20:51 | 10.19785 | -143.88365 | 35058 ft | 488 kts | 28° |
| 2026-04-22 20:52 | 10.25662 | -143.84907 | 35059 ft | 488 kts | 28° |
| 2026-04-22 20:52 | 10.31567 | -143.81432 | 35059 ft | 488 kts | 28° |
| 2026-04-22 20:53 | 10.37436 | -143.77981 | 35059 ft | 488 kts | 28° |
| 2026-04-22 20:53 | 10.43308 | -143.74525 | 35060 ft | 488 kts | 28° |
| 2026-04-22 20:54 | 10.49156 | -143.71078 | 35061 ft | 488 kts | 28° |
| 2026-04-22 20:54 | 10.55043 | -143.67607 | 35061 ft | 488 kts | 28° |
| 2026-04-22 20:55 | 10.60931 | -143.64134 | 35061 ft | 488 kts | 28° |
| 2026-04-22 20:55 | 10.66793 | -143.60674 | 35062 ft | 488 kts | 28° |
| 2026-04-22 20:56 | 10.72645 | -143.57219 | 35062 ft | 487 kts | 28° |
| 2026-04-22 20:56 | 10.78523 | -143.53746 | 35063 ft | 487 kts | 28° |
| 2026-04-22 20:57 | 10.84374 | -143.50288 | 35063 ft | 487 kts | 28° |
| 2026-04-22 20:57 | 10.90226 | -143.46828 | 35064 ft | 487 kts | 28° |
| 2026-04-22 20:58 | 10.96128 | -143.43337 | 35064 ft | 487 kts | 28° |
| 2026-04-22 20:58 | 11.01952 | -143.39890 | 35065 ft | 487 kts | 28° |
| 2026-04-22 20:59 | 11.07823 | -143.36413 | 35065 ft | 487 kts | 28° |
| 2026-04-22 20:59 | 11.13668 | -143.32950 | 35066 ft | 487 kts | 28° |
| 2026-04-22 21:00 | 11.19549 | -143.29465 | 35066 ft | 487 kts | 28° |
| 2026-04-22 21:00 | 11.25383 | -143.26006 | 35067 ft | 487 kts | 28° |
| 2026-04-22 21:01 | 11.31236 | -143.22534 | 35067 ft | 487 kts | 28° |
| 2026-04-22 21:01 | 11.37126 | -143.19038 | 35068 ft | 487 kts | 28° |
| 2026-04-22 21:02 | 11.42964 | -143.15571 | 35068 ft | 487 kts | 28° |
| 2026-04-22 21:02 | 11.48826 | -143.12089 | 35068 ft | 487 kts | 28° |
| 2026-04-22 21:03 | 11.54674 | -143.08613 | 35069 ft | 488 kts | 28° |
| 2026-04-22 21:03 | 11.60529 | -143.05131 | 35069 ft | 488 kts | 28° |
| 2026-04-22 21:04 | 11.66436 | -143.01617 | 35070 ft | 489 kts | 28° |
| 2026-04-22 21:04 | 11.72280 | -142.98138 | 35070 ft | 490 kts | 28° |
| 2026-04-22 21:05 | 11.78165 | -142.94633 | 35071 ft | 490 kts | 28° |
| 2026-04-22 21:05 | 11.84078 | -142.91110 | 35071 ft | 490 kts | 28° |
| 2026-04-22 21:06 | 11.89951 | -142.87609 | 35071 ft | 490 kts | 28° |
| 2026-04-22 21:06 | 11.95859 | -142.84085 | 35071 ft | 491 kts | 28° |
| 2026-04-22 21:07 | 12.01745 | -142.80572 | 35074 ft | 492 kts | 28° |
| 2026-04-22 21:07 | 12.07643 | -142.77051 | 35072 ft | 491 kts | 28° |
| 2026-04-22 21:08 | 12.13567 | -142.73512 | 35073 ft | 490 kts | 28° |
| 2026-04-22 21:08 | 12.19423 | -142.70012 | 35073 ft | 490 kts | 28° |
| 2026-04-22 21:09 | 12.25323 | -142.66484 | 35074 ft | 492 kts | 28° |
| 2026-04-22 21:09 | 12.31230 | -142.62950 | 35074 ft | 492 kts | 29° |
| 2026-04-22 21:10 | 12.37162 | -142.59399 | 35075 ft | 492 kts | 29° |
| 2026-04-22 21:10 | 12.43048 | -142.55873 | 35075 ft | 492 kts | 29° |
| 2026-04-22 21:11 | 12.48965 | -142.52327 | 35075 ft | 492 kts | 28° |
| 2026-04-22 21:11 | 12.54851 | -142.48798 | 35076 ft | 492 kts | 28° |
| 2026-04-22 21:12 | 12.60737 | -142.45267 | 35076 ft | 491 kts | 28° |
| 2026-04-22 21:12 | 12.66657 | -142.41714 | 35077 ft | 491 kts | 28° |
| 2026-04-22 21:13 | 12.72513 | -142.38197 | 35078 ft | 490 kts | 28° |
| 2026-04-22 21:13 | 12.78428 | -142.34643 | 35078 ft | 490 kts | 28° |
| 2026-04-22 21:14 | 12.84279 | -142.31126 | 35078 ft | 490 kts | 28° |
| 2026-04-22 21:14 | 12.90135 | -142.27602 | 35079 ft | 488 kts | 28° |
| 2026-04-22 21:15 | 12.95997 | -142.24075 | 35078 ft | 488 kts | 28° |
| 2026-04-22 21:15 | 13.01858 | -142.20545 | 35079 ft | 488 kts | 28° |
| 2026-04-22 21:16 | 13.07734 | -142.17005 | 35079 ft | 488 kts | 28° |
| 2026-04-22 21:16 | 13.13589 | -142.13475 | 35080 ft | 487 kts | 28° |
| 2026-04-22 21:17 | 13.19434 | -142.09949 | 35080 ft | 487 kts | 28° |
| 2026-04-22 21:17 | 13.25233 | -142.06449 | 35080 ft | 486 kts | 28° |
| 2026-04-22 21:18 | 13.31101 | -142.02906 | 35081 ft | 486 kts | 28° |
| 2026-04-22 21:18 | 13.36910 | -141.99396 | 35081 ft | 485 kts | 28° |
| 2026-04-22 21:19 | 13.42726 | -141.95880 | 35083 ft | 488 kts | 28° |
| 2026-04-22 21:19 | 13.48613 | -141.92318 | 35082 ft | 488 kts | 28° |
| 2026-04-22 21:20 | 13.53458 | -141.89386 | 35082 ft | 487 kts | 28° |
| 2026-04-22 21:20 | 13.60296 | -141.85245 | 35083 ft | 486 kts | 28° |
| 2026-04-22 21:21 | 13.65124 | -141.82319 | 35082 ft | 486 kts | 28° |
| 2026-04-22 21:21 | 13.70969 | -141.78776 | 35083 ft | 486 kts | 28° |
| 2026-04-22 21:22 | 13.76796 | -141.75242 | 35084 ft | 486 kts | 28° |
| 2026-04-22 21:22 | 13.82674 | -141.71673 | 35084 ft | 486 kts | 28° |
| 2026-04-22 21:23 | 13.88473 | -141.68151 | 35084 ft | 486 kts | 28° |
| 2026-04-22 21:23 | 13.94315 | -141.64602 | 35085 ft | 486 kts | 28° |
| 2026-04-22 21:24 | 14.00137 | -141.61062 | 35085 ft | 486 kts | 28° |
| 2026-04-22 21:24 | 14.05969 | -141.57514 | 35086 ft | 485 kts | 28° |
| 2026-04-22 21:25 | 14.11781 | -141.53976 | 35086 ft | 485 kts | 28° |
| 2026-04-22 21:25 | 14.17601 | -141.50431 | 35086 ft | 485 kts | 28° |
| 2026-04-22 21:26 | 14.23426 | -141.46880 | 35087 ft | 486 kts | 28° |
| 2026-04-22 21:26 | 14.29229 | -141.43341 | 35087 ft | 487 kts | 28° |
| 2026-04-22 21:27 | 14.35090 | -141.39764 | 35087 ft | 487 kts | 28° |
| 2026-04-22 21:27 | 14.40897 | -141.36219 | 35088 ft | 487 kts | 28° |
| 2026-04-22 21:28 | 14.46713 | -141.32664 | 35088 ft | 487 kts | 28° |
| 2026-04-22 21:28 | 14.52565 | -141.29087 | 35089 ft | 487 kts | 28° |
| 2026-04-22 21:29 | 14.58386 | -141.25526 | 35089 ft | 488 kts | 28° |
| 2026-04-22 21:29 | 14.64212 | -141.21959 | 35090 ft | 489 kts | 28° |
| 2026-04-22 21:30 | 14.70088 | -141.18360 | 35089 ft | 489 kts | 28° |
| 2026-04-22 21:30 | 14.75928 | -141.14787 | 35090 ft | 489 kts | 28° |
| 2026-04-22 21:31 | 14.81780 | -141.11198 | 35090 ft | 489 kts | 28° |
| 2026-04-22 21:31 | 14.87647 | -141.07594 | 35091 ft | 490 kts | 28° |
| 2026-04-22 21:32 | 14.93484 | -141.04007 | 35091 ft | 490 kts | 28° |
| 2026-04-22 21:32 | 14.99366 | -141.00392 | 35091 ft | 491 kts | 28° |
| 2026-04-22 21:33 | 15.05067 | -140.96479 | 35092 ft | 493 kts | 33° |
| 2026-04-22 21:33 | 15.10549 | -140.92221 | 35094 ft | 494 kts | 35° |
| 2026-04-22 21:34 | 15.16058 | -140.87924 | 35108 ft | 496 kts | 34° |
| 2026-04-22 21:34 | 15.21621 | -140.83663 | 35108 ft | 497 kts | 34° |
| 2026-04-22 21:35 | 15.27194 | -140.79422 | 35108 ft | 497 kts | 34° |
| 2026-04-22 21:35 | 15.32781 | -140.75193 | 35109 ft | 498 kts | 34° |
| 2026-04-22 21:36 | 15.38362 | -140.70966 | 35109 ft | 500 kts | 34° |
| 2026-04-22 21:36 | 15.44016 | -140.66677 | 35110 ft | 502 kts | 34° |
| 2026-04-22 21:37 | 15.49663 | -140.62389 | 35100 ft | 504 kts | 34° |
| 2026-04-22 21:37 | 15.55341 | -140.58074 | 35098 ft | 506 kts | 34° |
| 2026-04-22 21:38 | 15.61012 | -140.53761 | 35098 ft | 508 kts | 34° |
| 2026-04-22 21:38 | 15.66712 | -140.49423 | 35098 ft | 510 kts | 34° |
| 2026-04-22 21:39 | 15.72438 | -140.45061 | 35098 ft | 512 kts | 35° |
| 2026-04-22 21:39 | 15.78190 | -140.40678 | 35099 ft | 514 kts | 35° |
| 2026-04-22 21:40 | 15.83960 | -140.36276 | 35099 ft | 516 kts | 35° |
| 2026-04-22 21:40 | 15.89777 | -140.31837 | 35100 ft | 517 kts | 35° |
| 2026-04-22 21:41 | 15.95554 | -140.27424 | 35099 ft | 518 kts | 35° |
| 2026-04-22 21:41 | 16.01411 | -140.22947 | 35100 ft | 518 kts | 35° |
| 2026-04-22 21:42 | 16.07200 | -140.18518 | 35100 ft | 519 kts | 35° |
| 2026-04-22 21:42 | 16.13018 | -140.14065 | 35101 ft | 520 kts | 35° |
| 2026-04-22 21:43 | 16.18844 | -140.09601 | 35101 ft | 520 kts | 35° |
| 2026-04-22 21:43 | 16.24670 | -140.05134 | 35101 ft | 519 kts | 35° |
| 2026-04-22 21:44 | 16.30493 | -140.00667 | 35103 ft | 518 kts | 35° |
| 2026-04-22 21:44 | 16.36270 | -139.96231 | 35102 ft | 518 kts | 35° |
| 2026-04-22 21:45 | 16.42086 | -139.91762 | 35102 ft | 520 kts | 35° |
| 2026-04-22 21:45 | 16.47928 | -139.87269 | 35104 ft | 520 kts | 35° |
| 2026-04-22 21:46 | 16.53721 | -139.82811 | 35103 ft | 518 kts | 35° |
| 2026-04-22 21:46 | 16.59530 | -139.78338 | 35104 ft | 517 kts | 35° |
| 2026-04-22 21:47 | 16.65310 | -139.73883 | 35103 ft | 516 kts | 35° |
| 2026-04-22 21:47 | 16.71055 | -139.69451 | 35104 ft | 515 kts | 35° |
| 2026-04-22 21:48 | 16.76823 | -139.64998 | 35105 ft | 515 kts | 35° |
| 2026-04-22 21:48 | 16.82591 | -139.60542 | 35105 ft | 515 kts | 35° |
| 2026-04-22 21:49 | 16.88334 | -139.56103 | 35105 ft | 513 kts | 35° |
| 2026-04-22 21:49 | 16.94082 | -139.51655 | 35105 ft | 513 kts | 35° |
| 2026-04-22 21:50 | 16.99781 | -139.47242 | 35106 ft | 512 kts | 35° |
| 2026-04-22 21:50 | 17.05513 | -139.42799 | 35106 ft | 511 kts | 35° |
| 2026-04-22 21:51 | 17.11217 | -139.38376 | 35106 ft | 511 kts | 35° |
| 2026-04-22 21:52 | 17.19794 | -139.31717 | 35105 ft | 511 kts | 35° |
| 2026-04-22 21:52 | 17.25528 | -139.27262 | 35107 ft | 511 kts | 35° |
| 2026-04-22 21:53 | 17.31214 | -139.22839 | 35107 ft | 511 kts | 35° |
| 2026-04-22 21:53 | 17.36937 | -139.18386 | 35107 ft | 511 kts | 35° |
| 2026-04-22 21:54 | 17.42622 | -139.13957 | 35108 ft | 511 kts | 35° |
| 2026-04-22 21:54 | 17.48304 | -139.09528 | 35108 ft | 511 kts | 35° |
| 2026-04-22 21:55 | 17.53151 | -139.05747 | 35108 ft | 512 kts | 36° |
| 2026-04-22 21:55 | 17.58866 | -139.01285 | 35109 ft | 512 kts | 36° |
| 2026-04-22 21:56 | 17.64571 | -138.96828 | 35109 ft | 513 kts | 36° |
| 2026-04-22 21:56 | 17.70320 | -138.92332 | 35109 ft | 514 kts | 36° |
| 2026-04-22 21:57 | 17.76065 | -138.87836 | 35110 ft | 515 kts | 36° |
| 2026-04-22 21:57 | 17.81810 | -138.83336 | 35110 ft | 516 kts | 36° |
| 2026-04-22 21:58 | 17.87579 | -138.78814 | 35110 ft | 517 kts | 36° |
| 2026-04-22 21:58 | 17.93320 | -138.74310 | 35111 ft | 518 kts | 36° |
| 2026-04-22 21:59 | 17.99121 | -138.69755 | 35111 ft | 519 kts | 36° |
| 2026-04-22 21:59 | 18.04886 | -138.65224 | 35111 ft | 520 kts | 36° |
| 2026-04-22 22:00 | 18.10665 | -138.60678 | 35111 ft | 520 kts | 37° |
| 2026-04-22 22:00 | 18.16471 | -138.56108 | 35112 ft | 521 kts | 37° |
| 2026-04-22 22:01 | 18.22269 | -138.51540 | 35112 ft | 522 kts | 37° |
| 2026-04-22 22:01 | 18.28102 | -138.46941 | 35112 ft | 522 kts | 37° |
| 2026-04-22 22:02 | 18.33916 | -138.42352 | 35113 ft | 522 kts | 37° |
| 2026-04-22 22:02 | 18.39726 | -138.37762 | 35114 ft | 523 kts | 37° |
| 2026-04-22 22:03 | 18.45519 | -138.33182 | 35114 ft | 523 kts | 37° |
| 2026-04-22 22:03 | 18.51364 | -138.28557 | 35114 ft | 523 kts | 37° |
| 2026-04-22 22:04 | 18.57205 | -138.23938 | 35114 ft | 523 kts | 37° |
| 2026-04-22 22:04 | 18.63033 | -138.19323 | 35115 ft | 523 kts | 37° |
| 2026-04-22 22:05 | 18.68831 | -138.14719 | 35115 ft | 523 kts | 37° |
| 2026-04-22 22:05 | 18.74668 | -138.10078 | 35115 ft | 523 kts | 37° |
| 2026-04-22 22:06 | 18.80446 | -138.05484 | 35116 ft | 524 kts | 37° |
| 2026-04-22 22:06 | 18.86388 | -138.01048 | 35116 ft | 524 kts | 33° |
| 2026-04-22 22:07 | 18.92530 | -137.96819 | 35116 ft | 525 kts | 33° |
| 2026-04-22 22:07 | 18.98651 | -137.92569 | 35117 ft | 532 kts | 33° |
| 2026-04-22 22:08 | 19.04834 | -137.88219 | 35117 ft | 533 kts | 33° |
| 2026-04-22 22:08 | 19.10989 | -137.83872 | 35117 ft | 533 kts | 33° |
| 2026-04-22 22:09 | 19.17160 | -137.79523 | 35117 ft | 533 kts | 34° |
| 2026-04-22 22:09 | 19.23331 | -137.75158 | 35118 ft | 534 kts | 34° |
| 2026-04-22 22:10 | 19.29524 | -137.70770 | 35118 ft | 534 kts | 34° |
| 2026-04-22 22:10 | 19.35693 | -137.66393 | 35119 ft | 535 kts | 34° |
| 2026-04-22 22:11 | 19.41863 | -137.62011 | 35115 ft | 535 kts | 34° |
| 2026-04-22 22:11 | 19.48042 | -137.57618 | 35116 ft | 535 kts | 34° |
| 2026-04-22 22:12 | 19.54230 | -137.53214 | 35203 ft | 539 kts | 34° |
| 2026-04-22 22:12 | 19.57336 | -137.51002 | 35510 ft | 539 kts | 34° |
| 2026-04-22 22:12 | 19.60450 | -137.48784 | 35975 ft | 536 kts | 34° |
| 2026-04-22 22:12 | 19.63554 | -137.46571 | 36315 ft | 536 kts | 34° |
| 2026-04-22 22:13 | 19.66632 | -137.44375 | 36620 ft | 536 kts | 34° |
| 2026-04-22 22:13 | 19.69758 | -137.42146 | 36897 ft | 536 kts | 33° |
| 2026-04-22 22:13 | 19.72863 | -137.39929 | 37099 ft | 538 kts | 33° |
| 2026-04-22 22:14 | 19.79091 | -137.35481 | 37118 ft | 541 kts | 33° |
| 2026-04-22 22:14 | 19.85317 | -137.31029 | 37118 ft | 536 kts | 33° |
| 2026-04-22 22:15 | 19.91512 | -137.26596 | 37119 ft | 536 kts | 33° |
| 2026-04-22 22:15 | 19.97683 | -137.22176 | 37120 ft | 537 kts | 33° |
| 2026-04-22 22:16 | 20.03866 | -137.17742 | 37121 ft | 538 kts | 34° |
| 2026-04-22 22:16 | 20.10092 | -137.13273 | 37128 ft | 540 kts | 34° |
| 2026-04-22 22:17 | 20.16341 | -137.08783 | 37127 ft | 541 kts | 33° |
| 2026-04-22 22:17 | 20.22571 | -137.04302 | 37129 ft | 540 kts | 33° |
| 2026-04-22 22:18 | 20.28815 | -136.99808 | 37123 ft | 540 kts | 33° |
| 2026-04-22 22:18 | 20.35035 | -136.95326 | 37122 ft | 540 kts | 33° |
| 2026-04-22 22:19 | 20.41251 | -136.90842 | 37124 ft | 540 kts | 34° |
| 2026-04-22 22:19 | 20.47471 | -136.86351 | 37123 ft | 540 kts | 34° |
| 2026-04-22 22:20 | 20.53673 | -136.81868 | 37124 ft | 540 kts | 34° |
| 2026-04-22 22:20 | 20.59891 | -136.77370 | 37124 ft | 540 kts | 34° |
| 2026-04-22 22:21 | 20.66143 | -136.72843 | 37123 ft | 540 kts | 34° |
| 2026-04-22 22:21 | 20.72331 | -136.68357 | 37150 ft | 539 kts | 34° |
| 2026-04-22 22:22 | 20.78559 | -136.63837 | 37241 ft | 539 kts | 34° |
| 2026-04-22 22:22 | 20.84757 | -136.59335 | 37206 ft | 541 kts | 33° |
| 2026-04-22 22:23 | 20.90958 | -136.54827 | 37151 ft | 540 kts | 34° |
| 2026-04-22 22:23 | 20.97168 | -136.50306 | 37149 ft | 540 kts | 34° |
| 2026-04-22 22:24 | 21.03411 | -136.45758 | 37150 ft | 541 kts | 34° |
| 2026-04-22 22:24 | 21.09617 | -136.41232 | 37149 ft | 541 kts | 34° |
| 2026-04-22 22:25 | 21.15831 | -136.36694 | 37140 ft | 541 kts | 34° |
| 2026-04-22 22:25 | 21.22087 | -136.32121 | 37139 ft | 541 kts | 34° |
| 2026-04-22 22:26 | 21.28284 | -136.27588 | 37140 ft | 542 kts | 34° |
| 2026-04-22 22:26 | 21.34504 | -136.23033 | 37140 ft | 542 kts | 34° |
| 2026-04-22 22:27 | 21.40761 | -136.18445 | 37140 ft | 543 kts | 33° |
| 2026-04-22 22:27 | 21.47002 | -136.13865 | 37140 ft | 542 kts | 33° |
| 2026-04-22 22:28 | 21.53188 | -136.09320 | 37140 ft | 542 kts | 33° |
| 2026-04-22 22:28 | 21.58410 | -136.05480 | 37140 ft | 542 kts | 33° |
| 2026-04-22 22:29 | 21.64640 | -136.00893 | 37140 ft | 543 kts | 33° |
| 2026-04-22 22:29 | 21.70852 | -135.96316 | 37141 ft | 543 kts | 33° |
| 2026-04-22 22:30 | 21.77094 | -135.91711 | 37140 ft | 543 kts | 33° |
| 2026-04-22 22:30 | 21.83334 | -135.87103 | 37141 ft | 543 kts | 33° |
| 2026-04-22 22:31 | 21.89536 | -135.82518 | 37141 ft | 543 kts | 33° |
| 2026-04-22 22:31 | 21.95777 | -135.77899 | 37141 ft | 543 kts | 33° |
| 2026-04-22 22:32 | 22.01986 | -135.73299 | 37141 ft | 543 kts | 33° |
| 2026-04-22 22:32 | 22.08187 | -135.68699 | 37138 ft | 543 kts | 33° |
| 2026-04-22 22:33 | 22.14459 | -135.64042 | 37132 ft | 543 kts | 33° |
| 2026-04-22 22:33 | 22.20676 | -135.59421 | 37132 ft | 543 kts | 33° |
| 2026-04-22 22:34 | 22.26906 | -135.54785 | 37134 ft | 543 kts | 33° |
| 2026-04-22 22:34 | 22.33124 | -135.50152 | 37135 ft | 543 kts | 34° |
| 2026-04-22 22:35 | 22.39310 | -135.45539 | 37135 ft | 543 kts | 34° |
| 2026-04-22 22:35 | 22.45550 | -135.40880 | 37135 ft | 543 kts | 34° |
| 2026-04-22 22:36 | 22.51732 | -135.36258 | 37143 ft | 543 kts | 34° |
| 2026-04-22 22:36 | 22.57984 | -135.31581 | 37144 ft | 542 kts | 34° |
| 2026-04-22 22:37 | 22.64207 | -135.26919 | 37141 ft | 542 kts | 33° |
| 2026-04-22 22:37 | 22.70403 | -135.22272 | 37140 ft | 543 kts | 33° |
| 2026-04-22 22:38 | 22.76607 | -135.17626 | 37140 ft | 543 kts | 33° |
| 2026-04-22 22:38 | 22.82848 | -135.12936 | 37140 ft | 543 kts | 34° |
| 2026-04-22 22:39 | 22.89005 | -135.08296 | 37141 ft | 543 kts | 33° |
| 2026-04-22 22:39 | 22.95198 | -135.03625 | 37141 ft | 542 kts | 33° |
| 2026-04-22 22:40 | 23.01222 | -134.98624 | 37141 ft | 542 kts | 42° |
| 2026-04-22 22:40 | 23.06470 | -134.92762 | 37419 ft | 544 kts | 49° |
| 2026-04-22 22:40 | 23.08957 | -134.89661 | 37715 ft | 543 kts | 50° |
| 2026-04-22 22:41 | 23.11391 | -134.86568 | 38026 ft | 542 kts | 50° |
| 2026-04-22 22:41 | 23.13865 | -134.83469 | 38263 ft | 543 kts | 50° |
| 2026-04-22 22:41 | 23.16372 | -134.80374 | 38504 ft | 543 kts | 50° |
| 2026-04-22 22:41 | 23.18866 | -134.77332 | 38693 ft | 544 kts | 49° |
| 2026-04-22 22:42 | 23.21399 | -134.74257 | 38897 ft | 545 kts | 49° |
| 2026-04-22 22:42 | 23.23934 | -134.71191 | 39107 ft | 545 kts | 49° |
| 2026-04-22 22:42 | 23.26514 | -134.68096 | 39151 ft | 547 kts | 49° |
| 2026-04-22 22:43 | 23.31604 | -134.61968 | 39150 ft | 543 kts | 49° |
| 2026-04-22 22:43 | 23.36648 | -134.55877 | 39151 ft | 542 kts | 49° |
| 2026-04-22 22:44 | 23.41682 | -134.49788 | 39162 ft | 542 kts | 49° |
| 2026-04-22 22:44 | 23.46719 | -134.43685 | 39163 ft | 543 kts | 49° |
| 2026-04-22 22:45 | 23.51779 | -134.37547 | 39163 ft | 543 kts | 49° |
| 2026-04-22 22:45 | 23.56821 | -134.31421 | 39164 ft | 543 kts | 49° |
| 2026-04-22 22:46 | 23.61834 | -134.25325 | 39164 ft | 542 kts | 49° |
| 2026-04-22 22:46 | 23.66878 | -134.19183 | 39164 ft | 542 kts | 49° |
| 2026-04-22 22:47 | 23.71893 | -134.13069 | 39164 ft | 542 kts | 49° |
| 2026-04-22 22:47 | 23.76925 | -134.06927 | 39164 ft | 542 kts | 49° |
| 2026-04-22 22:48 | 23.81983 | -134.00744 | 39165 ft | 542 kts | 49° |
| 2026-04-22 22:48 | 23.86984 | -133.94624 | 39164 ft | 542 kts | 49° |
| 2026-04-22 22:49 | 23.92036 | -133.88432 | 39164 ft | 542 kts | 49° |
| 2026-04-22 22:49 | 23.97041 | -133.82292 | 39165 ft | 542 kts | 49° |
| 2026-04-22 22:50 | 24.02052 | -133.76137 | 39165 ft | 542 kts | 49° |
| 2026-04-22 22:50 | 24.07082 | -133.69947 | 39164 ft | 542 kts | 49° |
| 2026-04-22 22:51 | 24.12068 | -133.63808 | 39165 ft | 542 kts | 49° |
| 2026-04-22 22:51 | 24.17069 | -133.57641 | 39161 ft | 541 kts | 49° |
| 2026-04-22 22:52 | 24.22067 | -133.51469 | 39161 ft | 541 kts | 49° |
| 2026-04-22 22:52 | 24.27061 | -133.45295 | 39161 ft | 541 kts | 49° |
| 2026-04-22 22:53 | 24.32091 | -133.39068 | 39162 ft | 541 kts | 49° |
| 2026-04-22 22:53 | 24.37042 | -133.32932 | 39197 ft | 540 kts | 49° |
| 2026-04-22 22:54 | 24.42024 | -133.26747 | 39198 ft | 540 kts | 49° |
| 2026-04-22 22:54 | 24.46995 | -133.20570 | 39199 ft | 540 kts | 48° |
| 2026-04-22 22:55 | 24.51971 | -133.14378 | 39198 ft | 540 kts | 48° |
| 2026-04-22 22:55 | 24.59395 | -133.05126 | 39198 ft | 539 kts | 48° |
| 2026-04-22 22:56 | 24.64354 | -132.98934 | 39197 ft | 539 kts | 48° |
| 2026-04-22 22:56 | 24.69306 | -132.92744 | 39197 ft | 539 kts | 48° |
| 2026-04-22 22:57 | 24.74252 | -132.86553 | 39198 ft | 538 kts | 48° |
| 2026-04-22 22:57 | 24.79216 | -132.80331 | 39198 ft | 538 kts | 48° |
| 2026-04-22 22:58 | 24.84159 | -132.74128 | 39199 ft | 538 kts | 48° |
| 2026-04-22 22:58 | 24.89082 | -132.67942 | 39199 ft | 538 kts | 48° |
| 2026-04-22 22:59 | 24.93998 | -132.61755 | 39199 ft | 538 kts | 48° |
| 2026-04-22 22:59 | 24.98930 | -132.55541 | 39200 ft | 537 kts | 48° |
| 2026-04-22 23:00 | 25.03849 | -132.49336 | 39199 ft | 537 kts | 48° |
| 2026-04-22 23:00 | 25.08799 | -132.43083 | 39200 ft | 537 kts | 48° |
| 2026-04-22 23:01 | 25.13723 | -132.36882 | 39200 ft | 537 kts | 48° |
| 2026-04-22 23:01 | 25.18614 | -132.30679 | 39200 ft | 536 kts | 48° |
| 2026-04-22 23:02 | 25.23497 | -132.24472 | 39200 ft | 536 kts | 48° |
| 2026-04-22 23:02 | 25.28373 | -132.18273 | 39201 ft | 536 kts | 48° |
| 2026-04-22 23:03 | 25.33301 | -132.12059 | 39201 ft | 535 kts | 47° |
| 2026-04-22 23:03 | 25.38270 | -132.05895 | 39204 ft | 535 kts | 47° |
| 2026-04-22 23:04 | 25.43175 | -131.99782 | 39204 ft | 535 kts | 47° |
| 2026-04-22 23:04 | 25.48115 | -131.93606 | 39204 ft | 534 kts | 47° |
| 2026-04-22 23:05 | 25.53046 | -131.87434 | 39205 ft | 534 kts | 47° |
| 2026-04-22 23:05 | 25.57148 | -131.82339 | 39205 ft | 534 kts | 47° |
| 2026-04-22 23:06 | 25.62085 | -131.76178 | 39199 ft | 534 kts | 47° |
| 2026-04-22 23:06 | 25.67002 | -131.70019 | 39191 ft | 534 kts | 47° |
| 2026-04-22 23:07 | 25.71949 | -131.63811 | 39191 ft | 534 kts | 47° |
| 2026-04-22 23:07 | 25.76847 | -131.57656 | 39192 ft | 534 kts | 47° |
| 2026-04-22 23:08 | 25.81776 | -131.51451 | 39191 ft | 534 kts | 47° |
| 2026-04-22 23:08 | 25.86690 | -131.45257 | 39192 ft | 534 kts | 47° |
| 2026-04-22 23:09 | 25.91601 | -131.39058 | 39192 ft | 534 kts | 47° |
| 2026-04-22 23:09 | 25.96489 | -131.32880 | 39192 ft | 534 kts | 47° |
| 2026-04-22 23:10 | 26.01387 | -131.26681 | 39194 ft | 534 kts | 47° |
| 2026-04-22 23:10 | 26.06287 | -131.20471 | 39193 ft | 533 kts | 47° |
| 2026-04-22 23:11 | 26.11195 | -131.14241 | 39193 ft | 533 kts | 47° |
| 2026-04-22 23:11 | 26.16090 | -131.08020 | 39193 ft | 533 kts | 47° |
| 2026-04-22 23:12 | 26.20962 | -131.01820 | 39193 ft | 533 kts | 47° |
| 2026-04-22 23:12 | 26.25857 | -130.95581 | 39193 ft | 533 kts | 47° |
| 2026-04-22 23:13 | 26.30715 | -130.89382 | 39194 ft | 533 kts | 47° |
| 2026-04-22 23:13 | 26.35588 | -130.83154 | 39194 ft | 533 kts | 47° |
| 2026-04-22 23:14 | 26.40498 | -130.76870 | 39193 ft | 534 kts | 47° |
| 2026-04-22 23:14 | 26.45368 | -130.70629 | 39194 ft | 534 kts | 47° |
| 2026-04-22 23:15 | 26.50223 | -130.64399 | 39194 ft | 534 kts | 47° |
| 2026-04-22 23:15 | 26.55090 | -130.58144 | 39194 ft | 534 kts | 47° |
| 2026-04-22 23:16 | 26.59968 | -130.51866 | 39195 ft | 534 kts | 47° |
| 2026-04-22 23:16 | 26.64826 | -130.45604 | 39195 ft | 534 kts | 47° |
| 2026-04-22 23:17 | 26.69706 | -130.39305 | 39196 ft | 534 kts | 47° |
| 2026-04-22 23:17 | 26.74575 | -130.33013 | 39195 ft | 534 kts | 47° |
| 2026-04-22 23:18 | 26.79430 | -130.26733 | 39196 ft | 533 kts | 47° |
| 2026-04-22 23:18 | 26.84260 | -130.20499 | 39196 ft | 533 kts | 47° |
| 2026-04-22 23:19 | 26.89104 | -130.14201 | 39196 ft | 533 kts | 47° |
| 2026-04-22 23:19 | 26.93972 | -130.07859 | 39196 ft | 533 kts | 47° |
| 2026-04-22 23:20 | 26.98799 | -130.01570 | 39196 ft | 533 kts | 47° |
| 2026-04-22 23:20 | 27.03414 | -129.95053 | 39197 ft | 534 kts | 52° |
| 2026-04-22 23:21 | 27.07650 | -129.88204 | 39197 ft | 535 kts | 54° |
| 2026-04-22 23:21 | 27.11896 | -129.81294 | 39197 ft | 535 kts | 54° |
| 2026-04-22 23:22 | 27.16157 | -129.74471 | 39197 ft | 534 kts | 53° |
| 2026-04-22 23:22 | 27.20436 | -129.67653 | 39197 ft | 534 kts | 53° |
| 2026-04-22 23:23 | 27.24743 | -129.60868 | 39196 ft | 534 kts | 53° |
| 2026-04-22 23:23 | 27.29060 | -129.54030 | 39197 ft | 534 kts | 53° |
| 2026-04-22 23:24 | 27.33350 | -129.47210 | 39197 ft | 534 kts | 53° |
| 2026-04-22 23:24 | 27.37643 | -129.40370 | 39197 ft | 534 kts | 53° |
| 2026-04-22 23:25 | 27.41930 | -129.33530 | 39177 ft | 534 kts | 53° |
| 2026-04-22 23:25 | 27.46206 | -129.26693 | 39178 ft | 534 kts | 53° |
| 2026-04-22 23:26 | 27.50472 | -129.19862 | 39178 ft | 534 kts | 53° |
| 2026-04-22 23:26 | 27.54765 | -129.12978 | 39178 ft | 534 kts | 53° |
| 2026-04-22 23:27 | 27.59019 | -129.06143 | 39178 ft | 534 kts | 53° |
| 2026-04-22 23:27 | 27.63280 | -128.99290 | 39179 ft | 534 kts | 53° |
| 2026-04-22 23:28 | 27.67541 | -128.92426 | 39179 ft | 534 kts | 53° |
| 2026-04-22 23:28 | 27.71802 | -128.85549 | 39179 ft | 534 kts | 53° |
| 2026-04-22 23:29 | 27.76060 | -128.78667 | 39179 ft | 534 kts | 53° |
| 2026-04-22 23:29 | 27.80312 | -128.71783 | 39179 ft | 534 kts | 53° |
| 2026-04-22 23:30 | 27.84570 | -128.64880 | 39179 ft | 534 kts | 53° |
| 2026-04-22 23:30 | 27.88798 | -128.58013 | 39180 ft | 535 kts | 53° |
| 2026-04-22 23:31 | 27.93059 | -128.51082 | 39179 ft | 535 kts | 53° |
| 2026-04-22 23:31 | 27.97305 | -128.44164 | 39180 ft | 535 kts | 53° |
| 2026-04-22 23:32 | 28.01543 | -128.37248 | 39180 ft | 534 kts | 53° |
| 2026-04-22 23:32 | 28.05766 | -128.30346 | 39180 ft | 534 kts | 53° |
| 2026-04-22 23:33 | 28.09995 | -128.23423 | 39181 ft | 534 kts | 53° |
| 2026-04-22 23:33 | 28.14205 | -128.16520 | 39180 ft | 534 kts | 53° |
| 2026-04-22 23:34 | 28.18430 | -128.09581 | 39167 ft | 534 kts | 53° |
| 2026-04-22 23:34 | 28.22655 | -128.02631 | 39165 ft | 534 kts | 54° |
| 2026-04-22 23:35 | 28.26852 | -127.95715 | 39166 ft | 534 kts | 54° |
| 2026-04-22 23:35 | 28.31077 | -127.88741 | 39167 ft | 534 kts | 53° |
| 2026-04-22 23:36 | 28.35276 | -127.81801 | 39166 ft | 533 kts | 53° |
| 2026-04-22 23:36 | 28.39455 | -127.74882 | 39167 ft | 533 kts | 53° |
| 2026-04-22 23:37 | 28.43663 | -127.67904 | 39167 ft | 533 kts | 53° |
| 2026-04-22 23:37 | 28.47843 | -127.60960 | 39167 ft | 532 kts | 53° |
| 2026-04-22 23:38 | 28.52002 | -127.54037 | 39166 ft | 531 kts | 53° |
| 2026-04-22 23:38 | 28.56176 | -127.47082 | 39168 ft | 531 kts | 53° |
| 2026-04-22 23:39 | 28.59643 | -127.41296 | 39168 ft | 530 kts | 53° |
| 2026-04-22 23:39 | 28.64474 | -127.33218 | 39170 ft | 530 kts | 53° |
| 2026-04-22 23:40 | 28.67915 | -127.27456 | 39170 ft | 529 kts | 53° |
| 2026-04-22 23:40 | 28.72749 | -127.19348 | 39170 ft | 528 kts | 53° |
| 2026-04-22 23:41 | 28.76180 | -127.13584 | 39171 ft | 528 kts | 53° |
| 2026-04-22 23:41 | 28.80299 | -127.06655 | 39171 ft | 528 kts | 53° |
| 2026-04-22 23:42 | 28.84399 | -126.99744 | 39170 ft | 527 kts | 53° |
| 2026-04-22 23:42 | 28.88498 | -126.92824 | 39172 ft | 527 kts | 53° |
| 2026-04-22 23:43 | 28.92610 | -126.85870 | 39172 ft | 526 kts | 53° |
| 2026-04-22 23:43 | 28.96691 | -126.78957 | 39172 ft | 526 kts | 53° |
| 2026-04-22 23:44 | 29.00786 | -126.72010 | 39173 ft | 526 kts | 53° |
| 2026-04-22 23:44 | 29.04850 | -126.65102 | 39174 ft | 525 kts | 53° |
| 2026-04-22 23:45 | 29.08934 | -126.58151 | 39174 ft | 525 kts | 53° |
| 2026-04-22 23:45 | 29.12981 | -126.51250 | 39174 ft | 524 kts | 53° |
| 2026-04-22 23:46 | 29.17043 | -126.44313 | 39174 ft | 524 kts | 53° |
| 2026-04-22 23:46 | 29.21099 | -126.37373 | 39149 ft | 523 kts | 53° |
| 2026-04-22 23:47 | 29.25154 | -126.30425 | 39149 ft | 522 kts | 53° |
| 2026-04-22 23:47 | 29.29173 | -126.23526 | 39150 ft | 522 kts | 53° |
| 2026-04-22 23:48 | 29.33202 | -126.16599 | 39151 ft | 522 kts | 53° |
| 2026-04-22 23:48 | 29.37207 | -126.09700 | 39151 ft | 521 kts | 53° |
| 2026-04-22 23:49 | 29.41221 | -126.02775 | 39150 ft | 521 kts | 53° |
| 2026-04-22 23:49 | 29.45224 | -125.95858 | 39150 ft | 520 kts | 53° |
| 2026-04-22 23:50 | 29.49207 | -125.88962 | 39151 ft | 519 kts | 53° |
| 2026-04-22 23:50 | 29.53191 | -125.82054 | 39151 ft | 518 kts | 53° |
| 2026-04-22 23:51 | 29.57179 | -125.75129 | 39151 ft | 518 kts | 53° |
| 2026-04-22 23:51 | 29.61141 | -125.68236 | 39144 ft | 519 kts | 53° |
| 2026-04-22 23:52 | 29.65133 | -125.61280 | 39142 ft | 519 kts | 53° |
| 2026-04-22 23:52 | 29.69094 | -125.54364 | 39144 ft | 519 kts | 54° |
| 2026-04-22 23:53 | 29.73051 | -125.47444 | 39145 ft | 519 kts | 54° |
| 2026-04-22 23:53 | 29.77013 | -125.40503 | 39145 ft | 519 kts | 54° |
| 2026-04-22 23:54 | 29.81005 | -125.33500 | 39145 ft | 520 kts | 54° |
| 2026-04-22 23:54 | 29.84975 | -125.26563 | 39146 ft | 520 kts | 54° |
| 2026-04-22 23:55 | 29.88946 | -125.19572 | 39138 ft | 520 kts | 54° |
| 2026-04-22 23:55 | 29.92897 | -125.12583 | 39138 ft | 520 kts | 54° |
| 2026-04-22 23:56 | 29.96825 | -125.05626 | 39138 ft | 520 kts | 54° |
| 2026-04-22 23:56 | 30.00754 | -124.98582 | 39140 ft | 521 kts | 57° |
| 2026-04-22 23:57 | 30.04208 | -124.91213 | 39141 ft | 523 kts | 61° |
| 2026-04-22 23:57 | 30.07462 | -124.83658 | 39140 ft | 525 kts | 61° |
| 2026-04-22 23:58 | 30.10767 | -124.76136 | 39141 ft | 526 kts | 60° |
| 2026-04-22 23:58 | 30.14099 | -124.68640 | 39141 ft | 525 kts | 60° |
| 2026-04-22 23:59 | 30.17464 | -124.61142 | 39141 ft | 524 kts | 60° |
| 2026-04-22 23:59 | 30.20823 | -124.53702 | 39142 ft | 524 kts | 60° |
| 2026-04-23 00:00 | 30.25869 | -124.42432 | 39144 ft | 524 kts | 60° |
| 2026-04-23 00:01 | 30.29208 | -124.34943 | 39168 ft | 525 kts | 60° |
| 2026-04-23 00:01 | 30.32542 | -124.27447 | 39170 ft | 525 kts | 61° |
| 2026-04-23 00:02 | 30.35880 | -124.19928 | 39172 ft | 524 kts | 61° |
| 2026-04-23 00:02 | 30.39202 | -124.12429 | 39172 ft | 523 kts | 61° |
| 2026-04-23 00:03 | 30.42533 | -124.04895 | 39173 ft | 524 kts | 61° |
| 2026-04-23 00:03 | 30.45834 | -123.97413 | 39173 ft | 525 kts | 61° |
| 2026-04-23 00:04 | 30.49174 | -123.89828 | 39173 ft | 525 kts | 61° |
| 2026-04-23 00:04 | 30.52488 | -123.82288 | 39172 ft | 525 kts | 61° |
| 2026-04-23 00:05 | 30.55799 | -123.74738 | 39173 ft | 525 kts | 61° |
| 2026-04-23 00:05 | 30.59087 | -123.67225 | 39174 ft | 526 kts | 61° |
| 2026-04-23 00:06 | 30.62417 | -123.59600 | 39175 ft | 526 kts | 61° |
| 2026-04-23 00:06 | 30.65707 | -123.52055 | 39175 ft | 527 kts | 61° |
| 2026-04-23 00:07 | 30.69010 | -123.44464 | 39175 ft | 527 kts | 60° |
| 2026-04-23 00:07 | 30.72335 | -123.36808 | 39175 ft | 527 kts | 60° |
| 2026-04-23 00:08 | 30.75630 | -123.29202 | 39175 ft | 528 kts | 60° |
| 2026-04-23 00:08 | 30.78924 | -123.21586 | 39175 ft | 528 kts | 60° |
| 2026-04-23 00:09 | 30.82223 | -123.13940 | 39166 ft | 529 kts | 60° |
| 2026-04-23 00:09 | 30.85509 | -123.06312 | 39164 ft | 529 kts | 60° |
| 2026-04-23 00:10 | 30.88805 | -122.98644 | 39165 ft | 529 kts | 60° |
| 2026-04-23 00:10 | 30.92090 | -122.90985 | 39165 ft | 529 kts | 60° |
| 2026-04-23 00:11 | 30.95378 | -122.83304 | 39165 ft | 529 kts | 61° |
| 2026-04-23 00:11 | 30.98651 | -122.75639 | 39170 ft | 529 kts | 61° |
| 2026-04-23 00:12 | 31.01942 | -122.67920 | 39170 ft | 529 kts | 61° |
| 2026-04-23 00:12 | 31.05215 | -122.60224 | 39170 ft | 529 kts | 61° |
| 2026-04-23 00:13 | 31.08468 | -122.52560 | 39174 ft | 529 kts | 61° |
| 2026-04-23 00:13 | 31.11729 | -122.44862 | 39178 ft | 529 kts | 61° |
| 2026-04-23 00:14 | 31.14986 | -122.37156 | 39178 ft | 530 kts | 61° |
| 2026-04-23 00:14 | 31.18272 | -122.29367 | 39180 ft | 539 kts | 61° |
| 2026-04-23 00:15 | 31.21611 | -122.21436 | 39178 ft | 547 kts | 61° |
| 2026-04-23 00:15 | 31.24982 | -122.13410 | 39178 ft | 551 kts | 61° |
| 2026-04-23 00:16 | 31.28338 | -122.05400 | 39174 ft | 550 kts | 61° |
| 2026-04-23 00:16 | 31.31698 | -121.97367 | 39175 ft | 549 kts | 61° |
| 2026-04-23 00:17 | 31.35043 | -121.89348 | 39175 ft | 548 kts | 61° |
| 2026-04-23 00:17 | 31.38380 | -121.81334 | 39182 ft | 548 kts | 61° |
| 2026-04-23 00:18 | 31.41718 | -121.73300 | 39184 ft | 548 kts | 61° |
| 2026-04-23 00:18 | 31.45075 | -121.65271 | 39184 ft | 548 kts | 61° |
| 2026-04-23 00:19 | 31.47834 | -121.58586 | 39184 ft | 548 kts | 61° |
| 2026-04-23 00:19 | 31.51144 | -121.50535 | 39183 ft | 548 kts | 62° |
| 2026-04-23 00:20 | 31.54459 | -121.42467 | 39183 ft | 548 kts | 61° |
| 2026-04-23 00:20 | 31.57655 | -121.34352 | 39183 ft | 549 kts | 65° |
| 2026-04-23 00:21 | 31.60914 | -121.24658 | 39175 ft | 550 kts | 66° |
| 2026-04-23 00:21 | 31.63283 | -121.17746 | 39174 ft | 549 kts | 66° |
| 2026-04-23 00:22 | 31.66148 | -121.09438 | 39175 ft | 549 kts | 66° |
| 2026-04-23 00:22 | 31.69005 | -121.01121 | 39175 ft | 549 kts | 66° |
| 2026-04-23 00:23 | 31.71856 | -120.92795 | 39175 ft | 549 kts | 66° |
| 2026-04-23 00:23 | 31.74701 | -120.84467 | 39175 ft | 549 kts | 66° |
| 2026-04-23 00:24 | 31.77546 | -120.76116 | 39175 ft | 549 kts | 66° |
| 2026-04-23 00:24 | 31.80374 | -120.67793 | 39175 ft | 549 kts | 66° |
| 2026-04-23 00:25 | 31.83219 | -120.59452 | 39158 ft | 550 kts | 66° |
| 2026-04-23 00:25 | 31.86077 | -120.51062 | 39153 ft | 554 kts | 67° |
| 2026-04-23 00:26 | 31.88896 | -120.42673 | 39150 ft | 554 kts | 67° |
| 2026-04-23 00:26 | 31.91728 | -120.34233 | 39150 ft | 553 kts | 67° |
| 2026-04-23 00:27 | 31.94924 | -120.26028 | 39146 ft | 550 kts | 57° |
| 2026-04-23 00:27 | 31.97143 | -120.22366 | 39152 ft | 546 kts | 46° |
| 2026-04-23 00:27 | 31.99705 | -120.19074 | 39156 ft | 545 kts | 43° |
| 2026-04-23 00:28 | 32.04916 | -120.12590 | 39150 ft | 543 kts | 42° |
| 2026-04-23 00:28 | 32.10103 | -120.06139 | 39150 ft | 541 kts | 41° |
| 2026-04-23 00:29 | 32.14998 | -120.00031 | 39142 ft | 541 kts | 42° |
| 2026-04-23 00:29 | 32.20166 | -119.93567 | 39142 ft | 541 kts | 42° |
| 2026-04-23 00:30 | 32.25299 | -119.87136 | 39104 ft | 538 kts | 41° |
| 2026-04-23 00:30 | 32.27876 | -119.83932 | 38670 ft | 528 kts | 41° |
| 2026-04-23 00:30 | 32.30383 | -119.80795 | 37943 ft | 535 kts | 41° |
| 2026-04-23 00:30 | 32.32943 | -119.77576 | 37280 ft | 537 kts | 41° |
| 2026-04-23 00:31 | 32.35500 | -119.74352 | 36630 ft | 538 kts | 41° |
| 2026-04-23 00:31 | 32.38092 | -119.71081 | 35973 ft | 540 kts | 41° |
| 2026-04-23 00:31 | 32.40630 | -119.67875 | 35331 ft | 541 kts | 40° |
| 2026-04-23 00:31 | 32.43206 | -119.64621 | 34681 ft | 542 kts | 40° |
| 2026-04-23 00:32 | 32.45789 | -119.61358 | 34029 ft | 542 kts | 40° |
| 2026-04-23 00:32 | 32.48368 | -119.58095 | 33378 ft | 542 kts | 40° |
| 2026-04-23 00:32 | 32.50936 | -119.54804 | 32726 ft | 543 kts | 41° |
| 2026-04-23 00:32 | 32.53493 | -119.51512 | 32076 ft | 542 kts | 41° |
| 2026-04-23 00:33 | 32.56048 | -119.48220 | 31426 ft | 542 kts | 41° |
| 2026-04-23 00:33 | 32.58594 | -119.44936 | 30776 ft | 541 kts | 42° |
| 2026-04-23 00:33 | 32.61135 | -119.41655 | 30126 ft | 539 kts | 42° |
| 2026-04-23 00:33 | 32.63668 | -119.38382 | 29477 ft | 538 kts | 43° |
| 2026-04-23 00:34 | 32.66194 | -119.35115 | 28826 ft | 535 kts | 43° |
| 2026-04-23 00:34 | 32.68707 | -119.31861 | 28175 ft | 532 kts | 43° |
| 2026-04-23 00:34 | 32.71202 | -119.28632 | 27526 ft | 529 kts | 43° |
| 2026-04-23 00:34 | 32.73699 | -119.25433 | 26876 ft | 526 kts | 43° |
| 2026-04-23 00:35 | 32.76180 | -119.22244 | 26225 ft | 523 kts | 43° |
| 2026-04-23 00:35 | 32.78632 | -119.19080 | 25577 ft | 519 kts | 43° |
| 2026-04-23 00:35 | 32.81038 | -119.15966 | 24935 ft | 516 kts | 43° |
| 2026-04-23 00:35 | 32.83484 | -119.12796 | 24277 ft | 512 kts | 43° |
| 2026-04-23 00:36 | 32.85851 | -119.09723 | 23637 ft | 508 kts | 43° |
| 2026-04-23 00:36 | 32.88229 | -119.06631 | 22987 ft | 504 kts | 43° |
| 2026-04-23 00:36 | 32.90588 | -119.03565 | 22338 ft | 500 kts | 43° |
| 2026-04-23 00:36 | 32.92912 | -119.00540 | 21691 ft | 485 kts | 43° |
| 2026-04-23 00:37 | 32.95120 | -118.97664 | 21081 ft | 456 kts | 43° |
| 2026-04-23 00:37 | 32.97250 | -118.94893 | 20626 ft | 451 kts | 43° |
| 2026-04-23 00:37 | 32.99371 | -118.92152 | 20137 ft | 447 kts | 42° |
| 2026-04-23 00:37 | 33.01472 | -118.89418 | 19650 ft | 444 kts | 43° |
| 2026-04-23 00:38 | 33.03545 | -118.86708 | 19162 ft | 440 kts | 43° |
| 2026-04-23 00:38 | 33.05593 | -118.84022 | 18679 ft | 436 kts | 43° |
| 2026-04-23 00:38 | 33.07631 | -118.81349 | 18195 ft | 433 kts | 43° |
| 2026-04-23 00:38 | 33.09645 | -118.78703 | 17710 ft | 429 kts | 43° |
| 2026-04-23 00:39 | 33.11619 | -118.76110 | 17133 ft | 428 kts | 43° |
| 2026-04-23 00:39 | 33.13620 | -118.73479 | 16576 ft | 426 kts | 43° |
| 2026-04-23 00:39 | 33.15599 | -118.70877 | 16232 ft | 418 kts | 43° |
| 2026-04-23 00:39 | 33.17547 | -118.68315 | 16139 ft | 404 kts | 43° |
| 2026-04-23 00:40 | 33.19394 | -118.65877 | 16072 ft | 390 kts | 43° |
| 2026-04-23 00:40 | 33.21157 | -118.63452 | 15876 ft | 382 kts | 45° |
| 2026-04-23 00:40 | 33.22853 | -118.61040 | 15766 ft | 377 kts | 45° |
| 2026-04-23 00:40 | 33.24545 | -118.58626 | 15658 ft | 381 kts | 45° |
| 2026-04-23 00:41 | 33.26255 | -118.56205 | 15551 ft | 381 kts | 45° |
| 2026-04-23 00:41 | 33.27964 | -118.53792 | 15450 ft | 379 kts | 45° |
| 2026-04-23 00:41 | 33.29672 | -118.51383 | 15347 ft | 379 kts | 45° |
| 2026-04-23 00:41 | 33.31367 | -118.48978 | 15244 ft | 378 kts | 46° |
| 2026-04-23 00:42 | 33.32764 | -118.46305 | 15139 ft | 383 kts | 62° |
| 2026-04-23 00:42 | 33.33500 | -118.43221 | 15046 ft | 389 kts | 78° |
| 2026-04-23 00:42 | 33.33743 | -118.39995 | 14953 ft | 390 kts | 85° |
| 2026-04-23 00:42 | 33.33797 | -118.36747 | 14847 ft | 390 kts | 89° |
| 2026-04-23 00:43 | 33.33713 | -118.33502 | 14738 ft | 389 kts | 92° |
| 2026-04-23 00:43 | 33.33715 | -118.30287 | 14448 ft | 385 kts | 81° |
| 2026-04-23 00:43 | 33.34460 | -118.27247 | 14086 ft | 377 kts | 61° |
| 2026-04-23 00:43 | 33.35960 | -118.24753 | 13690 ft | 365 kts | 40° |
| 2026-04-23 00:44 | 33.37995 | -118.23090 | 13441 ft | 346 kts | 20° |
| 2026-04-23 00:44 | 33.40210 | -118.22230 | 13368 ft | 324 kts | 6° |
| 2026-04-23 00:44 | 33.42379 | -118.21757 | 13284 ft | 312 kts | 5° |
| 2026-04-23 00:44 | 33.44477 | -118.21262 | 13177 ft | 303 kts | 5° |
| 2026-04-23 00:45 | 33.46521 | -118.20782 | 12996 ft | 296 kts | 5° |
| 2026-04-23 00:45 | 33.48530 | -118.20311 | 12713 ft | 295 kts | 5° |
| 2026-04-23 00:45 | 33.50560 | -118.19834 | 12239 ft | 300 kts | 5° |
| 2026-04-23 00:45 | 33.52628 | -118.19348 | 11694 ft | 307 kts | 5° |
| 2026-04-23 00:46 | 33.54742 | -118.18850 | 11157 ft | 307 kts | 6° |
| 2026-04-23 00:46 | 33.56775 | -118.18372 | 10773 ft | 298 kts | 6° |
| 2026-04-23 00:46 | 33.58825 | -118.17892 | 10396 ft | 299 kts | 7° |
| 2026-04-23 00:46 | 33.60866 | -118.17413 | 10021 ft | 299 kts | 7° |
| 2026-04-23 00:47 | 33.62913 | -118.16931 | 9646 ft | 299 kts | 8° |
| 2026-04-23 00:47 | 33.64951 | -118.16449 | 9276 ft | 300 kts | 8° |
| 2026-04-23 00:47 | 33.66983 | -118.15969 | 8900 ft | 300 kts | 9° |
| 2026-04-23 00:47 | 33.69043 | -118.15481 | 8507 ft | 293 kts | 9° |
| 2026-04-23 00:48 | 33.70955 | -118.15028 | 8129 ft | 275 kts | 9° |
| 2026-04-23 00:48 | 33.72837 | -118.14581 | 7748 ft | 270 kts | 9° |
| 2026-04-23 00:48 | 33.74668 | -118.14147 | 7384 ft | 271 kts | 9° |
| 2026-04-23 00:48 | 33.76501 | -118.13712 | 7014 ft | 273 kts | 9° |
| 2026-04-23 00:49 | 33.78357 | -118.13270 | 6632 ft | 266 kts | 10° |
| 2026-04-23 00:49 | 33.80117 | -118.12853 | 6278 ft | 250 kts | 10° |
| 2026-04-23 00:49 | 33.81797 | -118.12435 | 5890 ft | 247 kts | 13° |
| 2026-04-23 00:49 | 33.83319 | -118.11494 | 5555 ft | 248 kts | 40° |
| 2026-04-23 00:50 | 33.84248 | -118.09776 | 5309 ft | 247 kts | 68° |
| 2026-04-23 00:50 | 33.84597 | -118.07761 | 5057 ft | 246 kts | 79° |
| 2026-04-23 00:50 | 33.84824 | -118.05731 | 4976 ft | 246 kts | 81° |
| 2026-04-23 00:50 | 33.85050 | -118.03687 | 4978 ft | 246 kts | 81° |
| 2026-04-23 00:51 | 33.85283 | -118.01647 | 4982 ft | 247 kts | 82° |
| 2026-04-23 00:51 | 33.85522 | -117.99597 | 4983 ft | 247 kts | 82° |
| 2026-04-23 00:51 | 33.85764 | -117.97542 | 4984 ft | 247 kts | 82° |
| 2026-04-23 00:51 | 33.86005 | -117.95491 | 4984 ft | 247 kts | 82° |
| 2026-04-23 00:52 | 33.86314 | -117.93463 | 4985 ft | 245 kts | 72° |
| 2026-04-23 00:52 | 33.87224 | -117.91763 | 4979 ft | 245 kts | 42° |
| 2026-04-23 00:52 | 33.88724 | -117.90838 | 4982 ft | 244 kts | 13° |
| 2026-04-23 00:52 | 33.90404 | -117.90796 | 4927 ft | 241 kts | 355° |
| 2026-04-23 00:53 | 33.92060 | -117.91049 | 4765 ft | 237 kts | 352° |
| 2026-04-23 00:53 | 33.93682 | -117.91311 | 4547 ft | 233 kts | 352° |
| 2026-04-23 00:53 | 33.94877 | -117.91505 | 4371 ft | 230 kts | 349° |
| 2026-04-23 00:53 | 33.96324 | -117.92217 | 4128 ft | 226 kts | 321° |
| 2026-04-23 00:54 | 33.97187 | -117.93768 | 4016 ft | 221 kts | 289° |
| 2026-04-23 00:54 | 33.97429 | -117.95583 | 4016 ft | 219 kts | 275° |
| 2026-04-23 00:54 | 33.97457 | -117.97418 | 4010 ft | 216 kts | 271° |
| 2026-04-23 00:54 | 33.97447 | -117.99264 | 4011 ft | 216 kts | 269° |
| 2026-04-23 00:55 | 33.97394 | -118.01058 | 4005 ft | 218 kts | 267° |
| 2026-04-23 00:55 | 33.97284 | -118.02880 | 4004 ft | 218 kts | 265° |
| 2026-04-23 00:55 | 33.97136 | -118.04701 | 4003 ft | 218 kts | 264° |
| 2026-04-23 00:55 | 33.96968 | -118.06509 | 4001 ft | 218 kts | 263° |
| 2026-04-23 00:56 | 33.96794 | -118.08300 | 4040 ft | 212 kts | 263° |
| 2026-04-23 00:56 | 33.96620 | -118.10045 | 4044 ft | 212 kts | 263° |
| 2026-04-23 00:56 | 33.96445 | -118.11794 | 4006 ft | 206 kts | 263° |
| 2026-04-23 00:56 | 33.96276 | -118.13441 | 3988 ft | 189 kts | 263° |
| 2026-04-23 00:57 | 33.96117 | -118.14996 | 3944 ft | 189 kts | 263° |
| 2026-04-23 00:57 | 33.95945 | -118.16683 | 3625 ft | 197 kts | 262° |
| 2026-04-23 00:57 | 33.95784 | -118.18259 | 3365 ft | 194 kts | 262° |
| 2026-04-23 00:57 | 33.95619 | -118.19870 | 3111 ft | 190 kts | 262° |
| 2026-04-23 00:58 | 33.95459 | -118.21438 | 2857 ft | 186 kts | 262° |
| 2026-04-23 00:58 | 33.95304 | -118.22952 | 2608 ft | 177 kts | 262° |
| 2026-04-23 00:58 | 33.95158 | -118.24384 | 2368 ft | 169 kts | 262° |
| 2026-04-23 00:58 | 33.95016 | -118.25769 | 2145 ft | 166 kts | 263° |
| 2026-04-23 00:59 | 33.94875 | -118.27151 | 1930 ft | 166 kts | 263° |
| 2026-04-23 00:59 | 33.94739 | -118.28479 | 1706 ft | 151 kts | 263° |
| 2026-04-23 00:59 | 33.94615 | -118.29692 | 1540 ft | 141 kts | 264° |
| 2026-04-23 00:59 | 33.94496 | -118.30857 | 1342 ft | 139 kts | 265° |
| 2026-04-23 01:00 | 33.94379 | -118.32001 | 1156 ft | 138 kts | 265° |
| 2026-04-23 01:00 | 33.94261 | -118.33154 | 975 ft | 140 kts | 265° |
| 2026-04-23 01:00 | 33.94141 | -118.34326 | 793 ft | 138 kts | 265° |
| 2026-04-23 01:00 | 33.94026 | -118.35454 | 608 ft | 137 kts | 265° |
| 2026-04-23 01:01 | 33.93913 | -118.36556 | 421 ft | 130 kts | 262° |
| 2026-04-23 01:01 | 33.93807 | -118.37600 | 247 ft | 123 kts | 261° |
| 2026-04-23 01:01 | 33.93700 | -118.38638 | 159 ft | 125 kts | 261° |
| 2026-04-23 01:01 | 33.93671 | -118.38940 | 145 ft | 0 kts | 261° |